Wetterdaten: Montag, 02.03.2015
Datum Zeit Temp. Aussen +5cm Feuchte Auss Luftdruck Regen Sonnenschein Regendauer Solar Windben
02.03.2015 00:00 8,2 C 6,7 C 82 % 997,0 hPa 0,0 l/m 0 min 0 min 0 W/m 35,6 km/h (5 Bft)
02.03.2015 00:02 8,2 C 7,2 C 82 % 997,0 hPa 0,0 l/m 0 min 0 min 0 W/m 35,6 km/h (5 Bft)
02.03.2015 00:06 8,3 C 7,2 C 82 % 996,8 hPa 0,0 l/m 0 min 0 min 0 W/m 29,3 km/h (5 Bft)
02.03.2015 00:08 8,4 C 7,2 C 81 % 996,7 hPa 0,0 l/m 0 min 0 min 0 W/m 25,1 km/h (4 Bft)
02.03.2015 00:10 8,4 C 7,2 C 81 % 996,7 hPa 0,0 l/m 0 min 0 min 0 W/m 27,2 km/h (4 Bft)
02.03.2015 00:12 8,4 C 7,2 C 81 % 996,8 hPa 0,0 l/m 0 min 0 min 0 W/m 29,3 km/h (5 Bft)
02.03.2015 00:14 8,5 C 7,2 C 81 % 996,9 hPa 0,0 l/m 0 min 0 min 0 W/m 33,5 km/h (5 Bft)
02.03.2015 00:16 8,6 C 6,7 C 81 % 996,9 hPa 0,0 l/m 0 min 2 min 0 W/m 35,6 km/h (5 Bft)
02.03.2015 00:18 8,6 C 6,7 C 81 % 996,9 hPa 0,0 l/m 0 min 2 min 0 W/m 33,5 km/h (5 Bft)
02.03.2015 00:20 8,6 C 6,7 C 81 % 997,0 hPa 0,0 l/m 0 min 2 min 0 W/m 29,3 km/h (5 Bft)
02.03.2015 00:22 8,7 C 6,1 C 81 % 997,0 hPa 0,0 l/m 0 min 2 min 0 W/m 43,9 km/h (6 Bft)
02.03.2015 00:24 8,7 C 6,1 C 82 % 996,9 hPa 0,0 l/m 0 min 2 min 0 W/m 25,1 km/h (4 Bft)
02.03.2015 00:26 8,7 C 6,1 C 82 % 996,9 hPa 0,0 l/m 0 min 2 min 0 W/m 23,0 km/h (4 Bft)
02.03.2015 00:28 8,7 C 6,1 C 82 % 997,0 hPa 0,0 l/m 0 min 2 min 0 W/m 31,4 km/h (5 Bft)
02.03.2015 00:30 8,7 C 6,1 C 82 % 996,9 hPa 0,0 l/m 0 min 0 min 0 W/m 46,0 km/h (6 Bft)
02.03.2015 00:32 8,7 C 6,1 C 82 % 996,8 hPa 0,0 l/m 0 min 0 min 0 W/m 39,7 km/h (6 Bft)
02.03.2015 00:34 8,7 C 6,7 C 82 % 996,8 hPa 0,0 l/m 0 min 0 min 0 W/m 41,8 km/h (6 Bft)
02.03.2015 00:36 8,6 C 6,1 C 82 % 996,9 hPa 0,0 l/m 0 min 0 min 0 W/m 43,9 km/h (6 Bft)
02.03.2015 00:38 8,6 C 6,7 C 82 % 996,8 hPa 0,0 l/m 0 min 0 min 0 W/m 39,7 km/h (6 Bft)
02.03.2015 00:40 8,6 C 6,7 C 83 % 996,9 hPa 0,0 l/m 0 min 0 min 0 W/m 48,1 km/h (6 Bft)
02.03.2015 00:42 8,6 C 6,7 C 83 % 996,7 hPa 0,0 l/m 0 min 0 min 0 W/m 46,0 km/h (6 Bft)
02.03.2015 00:44 8,6 C 6,7 C 83 % 996,7 hPa 0,0 l/m 0 min 0 min 0 W/m 31,4 km/h (5 Bft)
02.03.2015 00:46 8,6 C 6,7 C 83 % 996,7 hPa 0,0 l/m 0 min 0 min 0 W/m 37,7 km/h (5 Bft)
02.03.2015 00:48 8,6 C 6,7 C 83 % 996,8 hPa 0,0 l/m 0 min 0 min 0 W/m 31,4 km/h (5 Bft)
02.03.2015 00:50 8,6 C 6,7 C 83 % 996,8 hPa 0,0 l/m 0 min 0 min 0 W/m 37,7 km/h (5 Bft)
02.03.2015 00:52 8,6 C 6,7 C 83 % 996,8 hPa 0,0 l/m 0 min 0 min 0 W/m 50,2 km/h (7 Bft)
02.03.2015 00:54 8,6 C 6,7 C 83 % 996,7 hPa 0,0 l/m 0 min 2 min 0 W/m 33,5 km/h (5 Bft)
02.03.2015 00:56 8,7 C 6,7 C 84 % 997,0 hPa 0,0 l/m 0 min 2 min 0 W/m 39,7 km/h (6 Bft)
02.03.2015 00:58 8,7 C 6,1 C 84 % 996,8 hPa 0,2 l/m 0 min 2 min 0 W/m 39,7 km/h (6 Bft)
02.03.2015 01:00 8,6 C 6,1 C 84 % 996,8 hPa 0,0 l/m 0 min 2 min 0 W/m 43,9 km/h (6 Bft)
02.03.2015 01:02 8,6 C 6,1 C 85 % 997,2 hPa 0,0 l/m 0 min 2 min 0 W/m 62,8 km/h (8 Bft)
02.03.2015 01:04 8,5 C 6,1 C 85 % 996,7 hPa 0,0 l/m 0 min 2 min 0 W/m 33,5 km/h (5 Bft)
02.03.2015 01:06 8,4 C 5,6 C 85 % 996,9 hPa 0,0 l/m 0 min 2 min 0 W/m 43,9 km/h (6 Bft)
02.03.2015 01:08 8,3 C 5,6 C 85 % 996,9 hPa 0,0 l/m 0 min 2 min 0 W/m 46,0 km/h (6 Bft)
02.03.2015 01:10 8,2 C 5,6 C 85 % 997,1 hPa 0,0 l/m 0 min 2 min 0 W/m 48,1 km/h (6 Bft)
02.03.2015 01:12 8,2 C 5,6 C 85 % 997,1 hPa 0,0 l/m 0 min 2 min 0 W/m 48,1 km/h (6 Bft)
02.03.2015 01:14 8,1 C 5,6 C 85 % 997,1 hPa 0,0 l/m 0 min 2 min 0 W/m 35,6 km/h (5 Bft)
02.03.2015 01:16 8,0 C 5,6 C 85 % 997,2 hPa 0,0 l/m 0 min 2 min 0 W/m 41,8 km/h (6 Bft)
02.03.2015 01:18 7,9 C 5,6 C 85 % 997,1 hPa 0,0 l/m 0 min 2 min 0 W/m 33,5 km/h (5 Bft)
02.03.2015 01:20 7,9 C 5,6 C 85 % 997,2 hPa 0,0 l/m 0 min 0 min 0 W/m 39,7 km/h (6 Bft)
02.03.2015 01:22 7,8 C 5,6 C 84 % 997,2 hPa 0,0 l/m 0 min 0 min 0 W/m 31,4 km/h (5 Bft)
02.03.2015 01:24 7,8 C 5,6 C 84 % 997,2 hPa 0,0 l/m 0 min 0 min 0 W/m 31,4 km/h (5 Bft)
02.03.2015 01:26 7,7 C 5,6 C 84 % 997,2 hPa 0,0 l/m 0 min 0 min 0 W/m 41,8 km/h (6 Bft)
02.03.2015 01:28 7,7 C 5,6 C 84 % 997,2 hPa 0,0 l/m 0 min 0 min 0 W/m 35,6 km/h (5 Bft)
02.03.2015 01:30 7,6 C 5,6 C 85 % 997,2 hPa 0,0 l/m 0 min 0 min 0 W/m 41,8 km/h (6 Bft)
02.03.2015 01:32 7,6 C 5,6 C 85 % 997,4 hPa 0,0 l/m 0 min 0 min 0 W/m 33,5 km/h (5 Bft)
02.03.2015 01:34 7,5 C 5,6 C 85 % 997,4 hPa 0,0 l/m 0 min 0 min 0 W/m 43,9 km/h (6 Bft)
02.03.2015 01:36 7,5 C 5,6 C 85 % 997,3 hPa 0,0 l/m 0 min 0 min 0 W/m 37,7 km/h (5 Bft)
02.03.2015 01:38 7,4 C 5,6 C 84 % 997,3 hPa 0,0 l/m 0 min 0 min 0 W/m 35,6 km/h (5 Bft)
02.03.2015 01:40 7,4 C 5,6 C 84 % 997,4 hPa 0,0 l/m 0 min 0 min 0 W/m 29,3 km/h (5 Bft)
02.03.2015 01:42 7,4 C 5,6 C 84 % 997,5 hPa 0,0 l/m 0 min 0 min 0 W/m 29,3 km/h (5 Bft)
02.03.2015 01:44 7,3 C 5,0 C 84 % 997,5 hPa 0,0 l/m 0 min 0 min 0 W/m 23,0 km/h (4 Bft)
02.03.2015 01:46 7,3 C 5,0 C 84 % 997,6 hPa 0,0 l/m 0 min 0 min 0 W/m 27,2 km/h (4 Bft)
02.03.2015 01:48 7,3 C 5,6 C 84 % 997,6 hPa 0,0 l/m 0 min 0 min 0 W/m 29,3 km/h (5 Bft)
02.03.2015 01:50 7,3 C 5,6 C 84 % 997,7 hPa 0,0 l/m 0 min 0 min 0 W/m 29,3 km/h (5 Bft)
02.03.2015 01:52 7,2 C 5,6 C 84 % 997,7 hPa 0,0 l/m 0 min 0 min 0 W/m 29,3 km/h (5 Bft)
02.03.2015 01:54 7,2 C 5,6 C 84 % 997,7 hPa 0,0 l/m 0 min 0 min 0 W/m 33,5 km/h (5 Bft)
02.03.2015 01:56 7,2 C 5,0 C 84 % 997,8 hPa 0,0 l/m 0 min 0 min 0 W/m 29,3 km/h (5 Bft)
02.03.2015 01:58 7,2 C 5,0 C 84 % 997,8 hPa 0,0 l/m 0 min 0 min 0 W/m 25,1 km/h (4 Bft)
02.03.2015 02:00 7,1 C 5,0 C 84 % 997,9 hPa 0,0 l/m 0 min 0 min 0 W/m 33,5 km/h (5 Bft)
02.03.2015 02:02 7,1 C 5,0 C 84 % 997,8 hPa 0,0 l/m 0 min 0 min 0 W/m 27,2 km/h (4 Bft)
02.03.2015 02:04 7,1 C 5,0 C 84 % 997,8 hPa 0,0 l/m 0 min 0 min 0 W/m 25,1 km/h (4 Bft)
02.03.2015 02:06 7,0 C 5,0 C 84 % 997,9 hPa 0,0 l/m 0 min 0 min 0 W/m 29,3 km/h (5 Bft)
02.03.2015 02:08 7,0 C 5,0 C 84 % 998,0 hPa 0,0 l/m 0 min 0 min 0 W/m 29,3 km/h (5 Bft)
02.03.2015 02:10 7,0 C 5,0 C 84 % 998,2 hPa 0,0 l/m 0 min 0 min 0 W/m 25,1 km/h (4 Bft)
02.03.2015 02:12 6,9 C 5,0 C 84 % 998,3 hPa 0,0 l/m 0 min 0 min 0 W/m 29,3 km/h (5 Bft)
02.03.2015 02:14 6,9 C 5,0 C 84 % 998,3 hPa 0,0 l/m 0 min 0 min 0 W/m 35,6 km/h (5 Bft)
02.03.2015 02:16 6,9 C 5,6 C 85 % 998,3 hPa 0,0 l/m 0 min 0 min 0 W/m 27,2 km/h (4 Bft)
02.03.2015 02:18 6,9 C 5,6 C 85 % 998,4 hPa 0,0 l/m 0 min 0 min 0 W/m 29,3 km/h (5 Bft)
02.03.2015 02:20 6,9 C 5,6 C 85 % 998,4 hPa 0,0 l/m 0 min 0 min 0 W/m 29,3 km/h (5 Bft)
02.03.2015 02:22 6,9 C 5,6 C 84 % 998,4 hPa 0,0 l/m 0 min 0 min 0 W/m 29,3 km/h (5 Bft)
02.03.2015 02:24 6,9 C 5,6 C 84 % 998,5 hPa 0,0 l/m 0 min 0 min 0 W/m 39,7 km/h (6 Bft)
02.03.2015 02:26 6,9 C 5,6 C 83 % 998,5 hPa 0,0 l/m 0 min 0 min 0 W/m 50,2 km/h (7 Bft)
02.03.2015 02:28 7,0 C 5,6 C 83 % 998,5 hPa 0,0 l/m 0 min 0 min 0 W/m 41,8 km/h (6 Bft)
02.03.2015 02:30 7,0 C 5,6 C 82 % 998,6 hPa 0,0 l/m 0 min 0 min 0 W/m 52,3 km/h (7 Bft)
02.03.2015 02:32 7,0 C 5,6 C 81 % 998,6 hPa 0,0 l/m 0 min 0 min 0 W/m 25,1 km/h (4 Bft)
02.03.2015 02:34 7,1 C 5,6 C 81 % 998,6 hPa 0,0 l/m 0 min 0 min 0 W/m 43,9 km/h (6 Bft)
02.03.2015 02:36 7,1 C 5,6 C 80 % 998,6 hPa 0,0 l/m 0 min 0 min 0 W/m 35,6 km/h (5 Bft)
02.03.2015 02:38 7,1 C 5,6 C 80 % 998,7 hPa 0,0 l/m 0 min 0 min 0 W/m 23,0 km/h (4 Bft)
02.03.2015 02:40 7,1 C 5,6 C 80 % 998,7 hPa 0,0 l/m 0 min 0 min 0 W/m 37,7 km/h (5 Bft)
02.03.2015 02:42 7,1 C 5,6 C 80 % 999,0 hPa 0,0 l/m 0 min 0 min 0 W/m 35,6 km/h (5 Bft)
02.03.2015 02:44 7,1 C 5,6 C 79 % 998,9 hPa 0,0 l/m 0 min 0 min 0 W/m 41,8 km/h (6 Bft)
02.03.2015 02:46 7,1 C 5,0 C 79 % 998,9 hPa 0,0 l/m 0 min 0 min 0 W/m 31,4 km/h (5 Bft)
02.03.2015 02:48 7,1 C 5,0 C 79 % 998,9 hPa 0,0 l/m 0 min 0 min 0 W/m 31,4 km/h (5 Bft)
02.03.2015 02:50 7,0 C 5,0 C 79 % 999,0 hPa 0,0 l/m 0 min 0 min 0 W/m 35,6 km/h (5 Bft)
02.03.2015 02:52 7,0 C 5,0 C 79 % 999,1 hPa 0,0 l/m 0 min 0 min 0 W/m 27,2 km/h (4 Bft)
02.03.2015 02:54 6,9 C 5,0 C 79 % 999,2 hPa 0,0 l/m 0 min 0 min 0 W/m 29,3 km/h (5 Bft)
02.03.2015 02:56 6,9 C 5,0 C 79 % 999,3 hPa 0,0 l/m 0 min 0 min 0 W/m 35,6 km/h (5 Bft)
02.03.2015 02:58 6,8 C 5,0 C 78 % 999,2 hPa 0,0 l/m 0 min 0 min 0 W/m 31,4 km/h (5 Bft)
02.03.2015 03:00 6,8 C 5,0 C 78 % 999,2 hPa 0,0 l/m 0 min 0 min 0 W/m 46,0 km/h (6 Bft)
02.03.2015 03:02 6,7 C 5,0 C 78 % 999,4 hPa 0,0 l/m 0 min 0 min 0 W/m 37,7 km/h (5 Bft)
02.03.2015 03:04 6,7 C 5,0 C 78 % 999,5 hPa 0,0 l/m 0 min 0 min 0 W/m 39,7 km/h (6 Bft)
02.03.2015 03:06 6,7 C 5,0 C 77 % 999,5 hPa 0,0 l/m 0 min 0 min 0 W/m 37,7 km/h (5 Bft)
02.03.2015 03:08 6,6 C 5,0 C 77 % 999,5 hPa 0,0 l/m 0 min 0 min 0 W/m 33,5 km/h (5 Bft)
02.03.2015 03:10 6,6 C 5,0 C 77 % 999,6 hPa 0,0 l/m 0 min 0 min 0 W/m 31,4 km/h (5 Bft)
02.03.2015 03:12 6,6 C 5,0 C 77 % 999,5 hPa 0,0 l/m 0 min 0 min 0 W/m 46,0 km/h (6 Bft)
02.03.2015 03:14 6,5 C 4,4 C 77 % 999,6 hPa 0,0 l/m 0 min 0 min 0 W/m 29,3 km/h (5 Bft)
02.03.2015 03:16 6,5 C 4,4 C 77 % 999,6 hPa 0,0 l/m 0 min 0 min 0 W/m 33,5 km/h (5 Bft)
02.03.2015 03:18 6,4 C 4,4 C 77 % 999,6 hPa 0,0 l/m 0 min 0 min 0 W/m 41,8 km/h (6 Bft)
02.03.2015 03:20 6,4 C 4,4 C 76 % 999,7 hPa 0,0 l/m 0 min 0 min 0 W/m 37,7 km/h (5 Bft)
02.03.2015 03:22 6,4 C 4,4 C 76 % 999,7 hPa 0,0 l/m 0 min 0 min 0 W/m 33,5 km/h (5 Bft)
02.03.2015 03:24 6,4 C 4,4 C 76 % 999,8 hPa 0,0 l/m 0 min 0 min 0 W/m 37,7 km/h (5 Bft)
02.03.2015 03:26 6,3 C 4,4 C 76 % 999,8 hPa 0,0 l/m 0 min 0 min 0 W/m 31,4 km/h (5 Bft)
02.03.2015 03:28 6,3 C 4,4 C 76 % 999,7 hPa 0,0 l/m 0 min 0 min 0 W/m 27,2 km/h (4 Bft)
02.03.2015 03:30 6,3 C 4,4 C 76 % 999,7 hPa 0,0 l/m 0 min 0 min 0 W/m 23,0 km/h (4 Bft)
02.03.2015 03:32 6,2 C 4,4 C 76 % 999,8 hPa 0,0 l/m 0 min 0 min 0 W/m 35,6 km/h (5 Bft)
02.03.2015 03:34 6,2 C 4,4 C 76 % 999,9 hPa 0,0 l/m 0 min 0 min 0 W/m 35,6 km/h (5 Bft)
02.03.2015 03:36 6,1 C 4,4 C 76 % 999,9 hPa 0,0 l/m 0 min 0 min 0 W/m 20,9 km/h (4 Bft)
02.03.2015 03:38 6,1 C 4,4 C 76 % 999,9 hPa 0,0 l/m 0 min 0 min 0 W/m 37,7 km/h (5 Bft)
02.03.2015 03:40 6,0 C 3,9 C 76 % 999,8 hPa 0,0 l/m 0 min 0 min 0 W/m 23,0 km/h (4 Bft)
02.03.2015 03:42 6,0 C 3,9 C 76 % 999,9 hPa 0,0 l/m 0 min 0 min 0 W/m 27,2 km/h (4 Bft)
02.03.2015 03:44 5,9 C 3,9 C 76 % 999,8 hPa 0,0 l/m 0 min 0 min 0 W/m 25,1 km/h (4 Bft)
02.03.2015 03:46 5,9 C 3,9 C 76 % 999,9 hPa 0,0 l/m 0 min 0 min 0 W/m 27,2 km/h (4 Bft)
02.03.2015 03:48 5,9 C 3,9 C 76 % 999,9 hPa 0,0 l/m 0 min 0 min 0 W/m 27,2 km/h (4 Bft)
02.03.2015 03:50 5,8 C 3,9 C 76 % 1000,0 hPa 0,0 l/m 0 min 0 min 0 W/m 29,3 km/h (5 Bft)
02.03.2015 03:52 5,8 C 3,9 C 76 % 1000,1 hPa 0,0 l/m 0 min 0 min 0 W/m 31,4 km/h (5 Bft)
02.03.2015 03:54 5,8 C 3,9 C 76 % 1000,1 hPa 0,0 l/m 0 min 0 min 0 W/m 33,5 km/h (5 Bft)
02.03.2015 03:56 5,8 C 3,9 C 76 % 1000,1 hPa 0,0 l/m 0 min 0 min 0 W/m 31,4 km/h (5 Bft)
02.03.2015 03:58 5,7 C 3,9 C 76 % 1000,2 hPa 0,0 l/m 0 min 0 min 0 W/m 31,4 km/h (5 Bft)
02.03.2015 04:00 5,7 C 3,9 C 76 % 1000,2 hPa 0,0 l/m 0 min 0 min 0 W/m 41,8 km/h (6 Bft)
02.03.2015 04:02 5,7 C 3,9 C 76 % 1000,2 hPa 0,0 l/m 0 min 0 min 0 W/m 23,0 km/h (4 Bft)
02.03.2015 04:04 5,7 C 3,9 C 76 % 1000,2 hPa 0,0 l/m 0 min 0 min 0 W/m 29,3 km/h (5 Bft)
02.03.2015 04:06 5,7 C 3,9 C 76 % 1000,1 hPa 0,0 l/m 0 min 0 min 0 W/m 29,3 km/h (5 Bft)
02.03.2015 04:08 5,7 C 3,9 C 76 % 1000,2 hPa 0,0 l/m 0 min 0 min 0 W/m 35,6 km/h (5 Bft)
02.03.2015 04:10 5,7 C 3,9 C 76 % 1000,3 hPa 0,0 l/m 0 min 0 min 0 W/m 23,0 km/h (4 Bft)
02.03.2015 04:12 5,6 C 3,9 C 76 % 1000,3 hPa 0,0 l/m 0 min 0 min 0 W/m 29,3 km/h (5 Bft)
02.03.2015 04:14 5,6 C 3,9 C 76 % 1000,2 hPa 0,0 l/m 0 min 0 min 0 W/m 27,2 km/h (4 Bft)
02.03.2015 04:16 5,6 C 3,9 C 76 % 1000,3 hPa 0,0 l/m 0 min 0 min 0 W/m 27,2 km/h (4 Bft)
02.03.2015 04:18 5,6 C 3,9 C 76 % 1000,3 hPa 0,0 l/m 0 min 0 min 0 W/m 25,1 km/h (4 Bft)
02.03.2015 04:20 5,6 C 3,9 C 76 % 1000,3 hPa 0,0 l/m 0 min 0 min 0 W/m 33,5 km/h (5 Bft)
02.03.2015 04:22 5,5 C 3,9 C 76 % 1000,3 hPa 0,0 l/m 0 min 0 min 0 W/m 25,1 km/h (4 Bft)
02.03.2015 04:24 5,5 C 3,9 C 76 % 1000,3 hPa 0,0 l/m 0 min 0 min 0 W/m 33,5 km/h (5 Bft)
02.03.2015 04:26 5,4 C 3,9 C 76 % 1000,3 hPa 0,0 l/m 0 min 0 min 0 W/m 18,8 km/h (3 Bft)
02.03.2015 04:28 5,4 C 3,3 C 76 % 1000,3 hPa 0,0 l/m 0 min 0 min 0 W/m 20,9 km/h (4 Bft)
02.03.2015 04:30 5,4 C 3,3 C 76 % 1000,3 hPa 0,0 l/m 0 min 0 min 0 W/m 20,9 km/h (4 Bft)
02.03.2015 04:32 5,4 C 3,3 C 76 % 1000,3 hPa 0,0 l/m 0 min 0 min 0 W/m 14,6 km/h (3 Bft)
02.03.2015 04:34 5,4 C 3,3 C 76 % 1000,3 hPa 0,0 l/m 0 min 0 min 0 W/m 23,0 km/h (4 Bft)
02.03.2015 04:36 5,3 C 3,3 C 76 % 1000,2 hPa 0,0 l/m 0 min 0 min 0 W/m 29,3 km/h (5 Bft)
02.03.2015 04:38 5,3 C 3,3 C 76 % 1000,2 hPa 0,0 l/m 0 min 0 min 0 W/m 16,7 km/h (3 Bft)
02.03.2015 04:40 5,3 C 3,3 C 76 % 1000,2 hPa 0,0 l/m 0 min 0 min 0 W/m 20,9 km/h (4 Bft)
02.03.2015 04:42 5,3 C 3,3 C 76 % 1000,2 hPa 0,0 l/m 0 min 0 min 0 W/m 16,7 km/h (3 Bft)
02.03.2015 04:44 5,3 C 3,3 C 76 % 1000,2 hPa 0,0 l/m 0 min 0 min 0 W/m 16,7 km/h (3 Bft)
02.03.2015 04:46 5,3 C 3,3 C 76 % 1000,3 hPa 0,0 l/m 0 min 0 min 0 W/m 14,6 km/h (3 Bft)
02.03.2015 04:48 5,2 C 3,3 C 77 % 1000,3 hPa 0,0 l/m 0 min 0 min 0 W/m 16,7 km/h (3 Bft)
02.03.2015 04:50 5,2 C 3,3 C 77 % 1000,3 hPa 0,0 l/m 0 min 0 min 0 W/m 18,8 km/h (3 Bft)
02.03.2015 04:52 5,2 C 3,3 C 77 % 1000,3 hPa 0,0 l/m 0 min 0 min 0 W/m 10,5 km/h (2 Bft)
02.03.2015 04:54 5,1 C 3,3 C 77 % 1000,3 hPa 0,0 l/m 0 min 0 min 0 W/m 10,5 km/h (2 Bft)
02.03.2015 04:56 5,1 C 3,3 C 77 % 1000,4 hPa 0,0 l/m 0 min 0 min 0 W/m 23,0 km/h (4 Bft)
02.03.2015 04:58 5,1 C 3,3 C 77 % 1000,5 hPa 0,0 l/m 0 min 0 min 0 W/m 16,7 km/h (3 Bft)
02.03.2015 05:00 5,1 C 3,3 C 78 % 1000,5 hPa 0,0 l/m 0 min 0 min 0 W/m 20,9 km/h (4 Bft)
02.03.2015 05:02 5,1 C 3,3 C 78 % 1000,5 hPa 0,0 l/m 0 min 0 min 0 W/m 23,0 km/h (4 Bft)
02.03.2015 05:04 5,0 C 3,3 C 78 % 1000,5 hPa 0,0 l/m 0 min 0 min 0 W/m 14,6 km/h (3 Bft)
02.03.2015 05:06 5,0 C 3,3 C 78 % 1000,6 hPa 0,0 l/m 0 min 0 min 0 W/m 20,9 km/h (4 Bft)
02.03.2015 05:08 5,0 C 3,3 C 78 % 1000,5 hPa 0,0 l/m 0 min 0 min 0 W/m 18,8 km/h (3 Bft)
02.03.2015 05:10 4,9 C 3,3 C 79 % 1000,5 hPa 0,0 l/m 0 min 0 min 0 W/m 12,6 km/h (3 Bft)
02.03.2015 05:12 4,9 C 3,3 C 79 % 1000,6 hPa 0,0 l/m 0 min 0 min 0 W/m 16,7 km/h (3 Bft)
02.03.2015 05:14 4,9 C 3,3 C 79 % 1000,7 hPa 0,0 l/m 0 min 0 min 0 W/m 16,7 km/h (3 Bft)
02.03.2015 05:16 4,9 C 3,3 C 79 % 1000,8 hPa 0,0 l/m 0 min 0 min 0 W/m 14,6 km/h (3 Bft)
02.03.2015 05:18 4,9 C 3,3 C 79 % 1000,9 hPa 0,0 l/m 0 min 0 min 0 W/m 14,6 km/h (3 Bft)
02.03.2015 05:20 4,8 C 2,8 C 80 % 1000,9 hPa 0,0 l/m 0 min 0 min 0 W/m 14,6 km/h (3 Bft)
02.03.2015 05:22 4,8 C 3,3 C 80 % 1000,9 hPa 0,0 l/m 0 min 0 min 0 W/m 18,8 km/h (3 Bft)
02.03.2015 05:24 4,8 C 3,3 C 80 % 1000,9 hPa 0,0 l/m 0 min 0 min 0 W/m 20,9 km/h (4 Bft)
02.03.2015 05:26 4,8 C 3,3 C 80 % 1000,9 hPa 0,0 l/m 0 min 0 min 0 W/m 20,9 km/h (4 Bft)
02.03.2015 05:28 4,8 C 3,3 C 80 % 1001,0 hPa 0,0 l/m 0 min 0 min 0 W/m 25,1 km/h (4 Bft)
02.03.2015 05:30 4,8 C 3,3 C 81 % 1001,0 hPa 0,0 l/m 0 min 0 min 0 W/m 25,1 km/h (4 Bft)
02.03.2015 05:32 4,8 C 3,3 C 81 % 1001,1 hPa 0,0 l/m 0 min 0 min 0 W/m 16,7 km/h (3 Bft)
02.03.2015 05:34 4,8 C 2,8 C 81 % 1001,2 hPa 0,0 l/m 0 min 0 min 0 W/m 20,9 km/h (4 Bft)
02.03.2015 05:36 4,8 C 3,3 C 81 % 1001,1 hPa 0,0 l/m 0 min 0 min 0 W/m 25,1 km/h (4 Bft)
02.03.2015 05:38 4,8 C 3,3 C 81 % 1001,2 hPa 0,0 l/m 0 min 0 min 0 W/m 14,6 km/h (3 Bft)
02.03.2015 05:40 4,8 C 3,3 C 81 % 1001,2 hPa 0,0 l/m 0 min 0 min 0 W/m 25,1 km/h (4 Bft)
02.03.2015 05:42 4,8 C 3,3 C 81 % 1001,2 hPa 0,0 l/m 0 min 0 min 0 W/m 20,9 km/h (4 Bft)
02.03.2015 05:44 4,8 C 3,3 C 80 % 1001,2 hPa 0,0 l/m 0 min 0 min 0 W/m 14,6 km/h (3 Bft)
02.03.2015 05:46 4,8 C 2,8 C 80 % 1001,1 hPa 0,0 l/m 0 min 0 min 0 W/m 12,6 km/h (3 Bft)
02.03.2015 05:48 4,8 C 2,8 C 80 % 1001,2 hPa 0,0 l/m 0 min 0 min 0 W/m 12,6 km/h (3 Bft)
02.03.2015 05:50 4,8 C 2,8 C 80 % 1001,2 hPa 0,0 l/m 0 min 0 min 0 W/m 14,6 km/h (3 Bft)
02.03.2015 05:52 4,7 C 2,8 C 80 % 1001,2 hPa 0,0 l/m 0 min 0 min 0 W/m 18,8 km/h (3 Bft)
02.03.2015 05:54 4,7 C 2,8 C 80 % 1001,3 hPa 0,0 l/m 0 min 0 min 0 W/m 16,7 km/h (3 Bft)
02.03.2015 05:56 4,7 C 2,8 C 80 % 1001,3 hPa 0,0 l/m 0 min 0 min 0 W/m 14,6 km/h (3 Bft)
02.03.2015 05:58 4,7 C 2,8 C 80 % 1001,2 hPa 0,0 l/m 0 min 0 min 0 W/m 14,6 km/h (3 Bft)
02.03.2015 06:00 4,7 C 2,8 C 80 % 1001,2 hPa 0,0 l/m 0 min 0 min 0 W/m 10,5 km/h (2 Bft)
02.03.2015 06:02 4,7 C 2,2 C 80 % 1001,3 hPa 0,0 l/m 0 min 0 min 0 W/m 12,6 km/h (3 Bft)
02.03.2015 06:06 4,6 C 2,2 C 81 % 1001,3 hPa 0,0 l/m 0 min 0 min 0 W/m 14,6 km/h (3 Bft)
02.03.2015 06:08 4,5 C 2,2 C 81 % 1001,4 hPa 0,0 l/m 0 min 0 min 0 W/m 16,7 km/h (3 Bft)
02.03.2015 06:10 4,5 C 2,2 C 81 % 1001,4 hPa 0,0 l/m 0 min 0 min 0 W/m 16,7 km/h (3 Bft)
02.03.2015 06:12 4,4 C 2,8 C 81 % 1001,4 hPa 0,0 l/m 0 min 0 min 0 W/m 31,4 km/h (5 Bft)
02.03.2015 06:14 4,4 C 2,8 C 81 % 1001,4 hPa 0,0 l/m 0 min 0 min 0 W/m 14,6 km/h (3 Bft)
02.03.2015 06:16 4,4 C 2,8 C 81 % 1001,4 hPa 0,0 l/m 0 min 0 min 0 W/m 25,1 km/h (4 Bft)
02.03.2015 06:18 4,4 C 2,8 C 81 % 1001,5 hPa 0,0 l/m 0 min 0 min 0 W/m 14,6 km/h (3 Bft)
02.03.2015 06:20 4,4 C 2,8 C 81 % 1001,4 hPa 0,0 l/m 0 min 0 min 0 W/m 18,8 km/h (3 Bft)
02.03.2015 06:22 4,3 C 2,8 C 81 % 1001,5 hPa 0,0 l/m 0 min 0 min 0 W/m 20,9 km/h (4 Bft)
02.03.2015 06:24 4,3 C 2,8 C 81 % 1001,6 hPa 0,0 l/m 0 min 0 min 0 W/m 25,1 km/h (4 Bft)
02.03.2015 06:26 4,3 C 2,8 C 81 % 1001,6 hPa 0,0 l/m 0 min 0 min 0 W/m 16,7 km/h (3 Bft)
02.03.2015 06:28 4,3 C 2,8 C 81 % 1001,5 hPa 0,0 l/m 0 min 0 min 0 W/m 20,9 km/h (4 Bft)
02.03.2015 06:30 4,3 C 2,8 C 80 % 1001,4 hPa 0,0 l/m 0 min 0 min 0 W/m 20,9 km/h (4 Bft)
02.03.2015 06:32 4,3 C 2,8 C 80 % 1001,4 hPa 0,0 l/m 0 min 0 min 0 W/m 12,6 km/h (3 Bft)
02.03.2015 06:34 4,3 C 2,8 C 80 % 1001,4 hPa 0,0 l/m 0 min 0 min 0 W/m 23,0 km/h (4 Bft)
02.03.2015 06:36 4,3 C 2,8 C 80 % 1001,4 hPa 0,0 l/m 0 min 0 min 0 W/m 18,8 km/h (3 Bft)
02.03.2015 06:38 4,3 C 2,8 C 80 % 1001,4 hPa 0,0 l/m 0 min 0 min 0 W/m 18,8 km/h (3 Bft)
02.03.2015 06:40 4,3 C 2,8 C 80 % 1001,4 hPa 0,0 l/m 0 min 0 min 0 W/m 16,7 km/h (3 Bft)
02.03.2015 06:42 4,3 C 2,8 C 80 % 1001,4 hPa 0,0 l/m 0 min 0 min 0 W/m 14,6 km/h (3 Bft)
02.03.2015 06:44 4,3 C 2,2 C 80 % 1001,4 hPa 0,0 l/m 0 min 0 min 0 W/m 12,6 km/h (3 Bft)
02.03.2015 06:46 4,3 C 2,2 C 79 % 1001,4 hPa 0,0 l/m 0 min 0 min 0 W/m 12,6 km/h (3 Bft)
02.03.2015 06:48 4,3 C 2,2 C 79 % 1001,5 hPa 0,0 l/m 0 min 0 min 0 W/m 14,6 km/h (3 Bft)
02.03.2015 06:50 4,3 C 2,2 C 79 % 1001,5 hPa 0,0 l/m 0 min 0 min 0 W/m 10,5 km/h (2 Bft)
02.03.2015 06:52 4,2 C 2,2 C 80 % 1001,6 hPa 0,0 l/m 0 min 0 min 0 W/m 12,6 km/h (3 Bft)
02.03.2015 06:54 4,2 C 2,2 C 80 % 1001,7 hPa 0,0 l/m 0 min 0 min 0 W/m 6,3 km/h (2 Bft)
02.03.2015 06:56 4,2 C 2,2 C 80 % 1001,7 hPa 0,0 l/m 0 min 0 min 0 W/m 14,6 km/h (3 Bft)
02.03.2015 06:58 4,2 C 2,2 C 80 % 1001,7 hPa 0,0 l/m 0 min 0 min 0 W/m 10,5 km/h (2 Bft)
02.03.2015 07:00 4,2 C 2,2 C 80 % 1001,8 hPa 0,0 l/m 0 min 0 min 0 W/m 10,5 km/h (2 Bft)
02.03.2015 07:02 4,1 C 2,2 C 80 % 1001,8 hPa 0,0 l/m 0 min 0 min 0 W/m 14,6 km/h (3 Bft)
02.03.2015 07:04 4,1 C 2,2 C 80 % 1001,8 hPa 0,0 l/m 0 min 0 min 0 W/m 8,4 km/h (2 Bft)
02.03.2015 07:06 4,1 C 2,2 C 80 % 1001,9 hPa 0,0 l/m 0 min 0 min 0 W/m 12,6 km/h (3 Bft)
02.03.2015 07:08 4,1 C 2,2 C 80 % 1002,0 hPa 0,0 l/m 0 min 0 min 0 W/m 12,6 km/h (3 Bft)
02.03.2015 07:10 4,1 C 2,2 C 81 % 1002,0 hPa 0,0 l/m 0 min 0 min 0 W/m 14,6 km/h (3 Bft)
02.03.2015 07:12 4,0 C 2,2 C 81 % 1001,9 hPa 0,0 l/m 0 min 0 min 2 W/m 14,6 km/h (3 Bft)
02.03.2015 07:14 4,0 C 2,2 C 81 % 1001,9 hPa 0,0 l/m 0 min 0 min 5 W/m 12,6 km/h (3 Bft)
02.03.2015 07:16 3,9 C 2,2 C 81 % 1001,9 hPa 0,0 l/m 0 min 0 min 5 W/m 10,5 km/h (2 Bft)
02.03.2015 07:18 3,9 C 2,2 C 81 % 1002,0 hPa 0,0 l/m 0 min 0 min 6 W/m 10,5 km/h (2 Bft)
02.03.2015 07:20 3,9 C 2,2 C 81 % 1002,0 hPa 0,0 l/m 0 min 0 min 7 W/m 16,7 km/h (3 Bft)
02.03.2015 07:22 3,9 C 2,2 C 81 % 1002,0 hPa 0,0 l/m 0 min 0 min 7 W/m 14,6 km/h (3 Bft)
02.03.2015 07:24 3,8 C 2,2 C 81 % 1002,0 hPa 0,0 l/m 0 min 0 min 9 W/m 12,6 km/h (3 Bft)
02.03.2015 07:26 3,8 C 2,2 C 81 % 1002,0 hPa 0,0 l/m 0 min 0 min 9 W/m 18,8 km/h (3 Bft)
02.03.2015 07:28 3,8 C 2,2 C 82 % 1002,1 hPa 0,0 l/m 0 min 0 min 10 W/m 14,6 km/h (3 Bft)
02.03.2015 07:30 3,8 C 1,7 C 82 % 1002,1 hPa 0,0 l/m 2 min 0 min 11 W/m 12,6 km/h (3 Bft)
02.03.2015 07:32 3,8 C 1,7 C 82 % 1002,2 hPa 0,0 l/m 2 min 0 min 12 W/m 14,6 km/h (3 Bft)
02.03.2015 07:34 3,7 C 1,7 C 82 % 1002,2 hPa 0,0 l/m 0 min 0 min 12 W/m 12,6 km/h (3 Bft)
02.03.2015 07:36 3,7 C 1,7 C 82 % 1002,3 hPa 0,0 l/m 0 min 0 min 13 W/m 12,6 km/h (3 Bft)
02.03.2015 07:38 3,7 C 1,7 C 82 % 1002,3 hPa 0,0 l/m 0 min 0 min 14 W/m 16,7 km/h (3 Bft)
02.03.2015 07:40 3,7 C 1,7 C 82 % 1002,4 hPa 0,0 l/m 0 min 0 min 14 W/m 12,6 km/h (3 Bft)
02.03.2015 07:42 3,6 C 1,7 C 82 % 1002,4 hPa 0,0 l/m 0 min 0 min 16 W/m 18,8 km/h (3 Bft)
02.03.2015 07:44 3,6 C 1,7 C 82 % 1002,4 hPa 0,0 l/m 0 min 0 min 19 W/m 16,7 km/h (3 Bft)
02.03.2015 07:46 3,6 C 1,7 C 82 % 1002,5 hPa 0,0 l/m 0 min 0 min 25 W/m 25,1 km/h (4 Bft)
02.03.2015 07:48 3,6 C 2,2 C 82 % 1002,5 hPa 0,0 l/m 0 min 0 min 30 W/m 10,5 km/h (2 Bft)
02.03.2015 07:50 3,6 C 2,2 C 83 % 1002,7 hPa 0,0 l/m 0 min 0 min 26 W/m 12,6 km/h (3 Bft)
02.03.2015 07:52 3,6 C 2,2 C 83 % 1002,7 hPa 0,0 l/m 0 min 0 min 33 W/m 12,6 km/h (3 Bft)
02.03.2015 07:54 3,6 C 2,2 C 83 % 1002,7 hPa 0,0 l/m 2 min 0 min 43 W/m 18,8 km/h (3 Bft)
02.03.2015 07:56 3,6 C 2,2 C 83 % 1002,8 hPa 0,0 l/m 2 min 0 min 47 W/m 18,8 km/h (3 Bft)
02.03.2015 07:58 3,6 C 2,2 C 83 % 1002,8 hPa 0,0 l/m 2 min 0 min 51 W/m 18,8 km/h (3 Bft)
02.03.2015 08:00 3,6 C 2,2 C 83 % 1002,9 hPa 0,0 l/m 2 min 0 min 55 W/m 18,8 km/h (3 Bft)
02.03.2015 08:02 3,6 C 2,2 C 83 % 1002,9 hPa 0,0 l/m 2 min 0 min 60 W/m 16,7 km/h (3 Bft)
02.03.2015 08:04 3,6 C 2,2 C 83 % 1002,9 hPa 0,0 l/m 2 min 0 min 65 W/m 25,1 km/h (4 Bft)
02.03.2015 08:06 3,6 C 2,2 C 83 % 1002,9 hPa 0,0 l/m 2 min 0 min 66 W/m 14,6 km/h (3 Bft)
02.03.2015 08:08 3,6 C 2,2 C 83 % 1002,9 hPa 0,0 l/m 2 min 0 min 74 W/m 16,7 km/h (3 Bft)
02.03.2015 08:10 3,6 C 2,2 C 83 % 1002,9 hPa 0,0 l/m 2 min 0 min 77 W/m 20,9 km/h (4 Bft)
02.03.2015 08:12 3,7 C 2,2 C 83 % 1002,9 hPa 0,0 l/m 2 min 0 min 82 W/m 16,7 km/h (3 Bft)
02.03.2015 08:14 3,7 C 2,2 C 83 % 1002,9 hPa 0,0 l/m 2 min 0 min 88 W/m 18,8 km/h (3 Bft)
02.03.2015 08:16 3,7 C 2,2 C 83 % 1003,0 hPa 0,0 l/m 2 min 0 min 91 W/m 20,9 km/h (4 Bft)
02.03.2015 08:18 3,7 C 2,2 C 83 % 1003,1 hPa 0,0 l/m 2 min 0 min 95 W/m 20,9 km/h (4 Bft)
02.03.2015 08:20 3,7 C 2,8 C 83 % 1003,1 hPa 0,0 l/m 2 min 0 min 102 W/m 18,8 km/h (3 Bft)
02.03.2015 08:22 3,7 C 2,8 C 83 % 1003,1 hPa 0,0 l/m 2 min 0 min 107 W/m 27,2 km/h (4 Bft)
02.03.2015 08:24 3,8 C 2,8 C 83 % 1003,1 hPa 0,0 l/m 2 min 0 min 112 W/m 29,3 km/h (5 Bft)
02.03.2015 08:26 3,8 C 2,8 C 83 % 1003,1 hPa 0,0 l/m 2 min 0 min 118 W/m 27,2 km/h (4 Bft)
02.03.2015 08:28 3,8 C 2,8 C 83 % 1003,2 hPa 0,0 l/m 2 min 0 min 125 W/m 23,0 km/h (4 Bft)
02.03.2015 08:30 3,9 C 2,8 C 83 % 1003,2 hPa 0,0 l/m 2 min 0 min 127 W/m 27,2 km/h (4 Bft)
02.03.2015 08:32 3,9 C 2,8 C 83 % 1003,2 hPa 0,0 l/m 2 min 0 min 115 W/m 29,3 km/h (5 Bft)
02.03.2015 08:34 3,9 C 2,8 C 83 % 1003,3 hPa 0,0 l/m 2 min 0 min 148 W/m 20,9 km/h (4 Bft)
02.03.2015 08:36 4,0 C 2,8 C 83 % 1003,3 hPa 0,0 l/m 2 min 0 min 114 W/m 23,0 km/h (4 Bft)
02.03.2015 08:38 4,0 C 2,8 C 83 % 1003,2 hPa 0,0 l/m 2 min 0 min 122 W/m 27,2 km/h (4 Bft)
02.03.2015 08:40 4,1 C 2,8 C 83 % 1003,3 hPa 0,0 l/m 2 min 0 min 165 W/m 27,2 km/h (4 Bft)
02.03.2015 08:42 4,1 C 2,8 C 82 % 1003,3 hPa 0,0 l/m 2 min 0 min 167 W/m 23,0 km/h (4 Bft)
02.03.2015 08:44 4,1 C 3,3 C 82 % 1003,3 hPa 0,0 l/m 2 min 0 min 161 W/m 27,2 km/h (4 Bft)
02.03.2015 08:46 4,2 C 3,3 C 82 % 1003,3 hPa 0,0 l/m 2 min 0 min 129 W/m 23,0 km/h (4 Bft)
02.03.2015 08:48 4,2 C 3,3 C 82 % 1003,5 hPa 0,0 l/m 2 min 0 min 150 W/m 23,0 km/h (4 Bft)
02.03.2015 08:50 4,2 C 3,3 C 82 % 1003,5 hPa 0,0 l/m 2 min 0 min 115 W/m 25,1 km/h (4 Bft)
02.03.2015 08:52 4,3 C 3,3 C 82 % 1003,5 hPa 0,0 l/m 2 min 0 min 198 W/m 31,4 km/h (5 Bft)
02.03.2015 08:54 4,3 C 3,3 C 82 % 1003,5 hPa 0,0 l/m 2 min 0 min 201 W/m 20,9 km/h (4 Bft)
02.03.2015 08:56 4,3 C 3,3 C 82 % 1003,5 hPa 0,0 l/m 2 min 0 min 208 W/m 31,4 km/h (5 Bft)
02.03.2015 08:58 4,4 C 3,3 C 82 % 1003,5 hPa 0,0 l/m 2 min 0 min 214 W/m 25,1 km/h (4 Bft)
02.03.2015 09:00 4,4 C 3,3 C 81 % 1003,6 hPa 0,0 l/m 2 min 0 min 220 W/m 20,9 km/h (4 Bft)
02.03.2015 09:02 4,4 C 3,3 C 81 % 1003,6 hPa 0,0 l/m 2 min 0 min 226 W/m 25,1 km/h (4 Bft)
02.03.2015 09:04 4,5 C 3,3 C 81 % 1003,5 hPa 0,0 l/m 2 min 0 min 232 W/m 23,0 km/h (4 Bft)
02.03.2015 09:06 4,6 C 3,3 C 81 % 1003,6 hPa 0,0 l/m 2 min 0 min 239 W/m 27,2 km/h (4 Bft)
02.03.2015 09:08 4,6 C 3,3 C 81 % 1003,6 hPa 0,0 l/m 2 min 0 min 245 W/m 29,3 km/h (5 Bft)
02.03.2015 09:10 4,7 C 3,3 C 81 % 1003,7 hPa 0,0 l/m 2 min 0 min 251 W/m 29,3 km/h (5 Bft)
02.03.2015 09:12 4,8 C 3,9 C 81 % 1003,7 hPa 0,0 l/m 2 min 0 min 255 W/m 25,1 km/h (4 Bft)
02.03.2015 09:14 4,8 C 3,9 C 81 % 1003,8 hPa 0,0 l/m 2 min 0 min 260 W/m 20,9 km/h (4 Bft)
02.03.2015 09:16 4,9 C 3,9 C 81 % 1003,8 hPa 0,0 l/m 2 min 0 min 264 W/m 18,8 km/h (3 Bft)
02.03.2015 09:18 4,9 C 3,9 C 81 % 1003,8 hPa 0,0 l/m 2 min 0 min 269 W/m 25,1 km/h (4 Bft)
02.03.2015 09:20 5,0 C 3,9 C 80 % 1003,8 hPa 0,0 l/m 2 min 0 min 274 W/m 27,2 km/h (4 Bft)
02.03.2015 09:22 5,1 C 3,9 C 80 % 1003,8 hPa 0,0 l/m 2 min 0 min 278 W/m 25,1 km/h (4 Bft)
02.03.2015 09:24 5,2 C 3,9 C 80 % 1003,8 hPa 0,0 l/m 2 min 0 min 284 W/m 29,3 km/h (5 Bft)
02.03.2015 09:26 5,3 C 3,9 C 80 % 1003,8 hPa 0,0 l/m 2 min 0 min 289 W/m 27,2 km/h (4 Bft)
02.03.2015 09:28 5,3 C 3,9 C 80 % 1003,8 hPa 0,0 l/m 2 min 0 min 275 W/m 31,4 km/h (5 Bft)
02.03.2015 09:30 5,4 C 3,9 C 80 % 1003,8 hPa 0,0 l/m 2 min 0 min 305 W/m 23,0 km/h (4 Bft)
02.03.2015 09:32 5,5 C 3,9 C 81 % 1003,8 hPa 0,0 l/m 2 min 0 min 304 W/m 25,1 km/h (4 Bft)
02.03.2015 09:34 5,6 C 4,4 C 81 % 1003,9 hPa 0,0 l/m 2 min 0 min 310 W/m 31,4 km/h (5 Bft)
02.03.2015 09:36 5,7 C 4,4 C 81 % 1003,9 hPa 0,0 l/m 2 min 0 min 315 W/m 31,4 km/h (5 Bft)
02.03.2015 09:38 5,7 C 4,4 C 81 % 1003,9 hPa 0,0 l/m 2 min 0 min 316 W/m 33,5 km/h (5 Bft)
02.03.2015 09:40 5,8 C 4,4 C 81 % 1003,9 hPa 0,0 l/m 2 min 0 min 327 W/m 39,7 km/h (6 Bft)
02.03.2015 09:42 5,8 C 4,4 C 80 % 1004,0 hPa 0,0 l/m 2 min 0 min 329 W/m 35,6 km/h (5 Bft)
02.03.2015 09:44 5,9 C 4,4 C 80 % 1004,1 hPa 0,0 l/m 2 min 0 min 333 W/m 37,7 km/h (5 Bft)
02.03.2015 09:46 5,9 C 4,4 C 80 % 1004,2 hPa 0,0 l/m 2 min 0 min 335 W/m 31,4 km/h (5 Bft)
02.03.2015 09:48 6,0 C 4,4 C 80 % 1004,3 hPa 0,0 l/m 2 min 0 min 342 W/m 29,3 km/h (5 Bft)
02.03.2015 09:50 6,1 C 4,4 C 80 % 1004,3 hPa 0,0 l/m 2 min 0 min 350 W/m 31,4 km/h (5 Bft)
02.03.2015 09:52 6,1 C 4,4 C 80 % 1004,2 hPa 0,0 l/m 2 min 0 min 350 W/m 31,4 km/h (5 Bft)
02.03.2015 09:54 6,1 C 4,4 C 79 % 1004,2 hPa 0,0 l/m 2 min 0 min 353 W/m 29,3 km/h (5 Bft)
02.03.2015 09:56 6,2 C 4,4 C 79 % 1004,4 hPa 0,0 l/m 2 min 0 min 360 W/m 43,9 km/h (6 Bft)
02.03.2015 09:58 6,2 C 5,0 C 79 % 1004,4 hPa 0,0 l/m 2 min 0 min 366 W/m 29,3 km/h (5 Bft)
02.03.2015 10:00 6,2 C 5,0 C 79 % 1004,4 hPa 0,0 l/m 2 min 0 min 369 W/m 39,7 km/h (6 Bft)
02.03.2015 10:02 6,3 C 5,0 C 79 % 1004,5 hPa 0,0 l/m 2 min 0 min 374 W/m 33,5 km/h (5 Bft)
02.03.2015 10:04 6,3 C 5,0 C 78 % 1004,5 hPa 0,0 l/m 2 min 0 min 378 W/m 33,5 km/h (5 Bft)
02.03.2015 10:06 6,4 C 5,0 C 78 % 1004,5 hPa 0,0 l/m 2 min 0 min 388 W/m 25,1 km/h (4 Bft)
02.03.2015 10:08 6,4 C 5,0 C 78 % 1004,5 hPa 0,0 l/m 2 min 0 min 388 W/m 25,1 km/h (4 Bft)
02.03.2015 10:10 6,4 C 5,0 C 78 % 1004,5 hPa 0,0 l/m 2 min 0 min 390 W/m 29,3 km/h (5 Bft)
02.03.2015 10:12 6,5 C 5,0 C 77 % 1004,5 hPa 0,0 l/m 2 min 0 min 396 W/m 35,6 km/h (5 Bft)
02.03.2015 10:14 6,5 C 5,0 C 77 % 1004,5 hPa 0,0 l/m 2 min 0 min 401 W/m 39,7 km/h (6 Bft)
02.03.2015 10:16 6,6 C 5,0 C 77 % 1004,5 hPa 0,0 l/m 2 min 0 min 405 W/m 39,7 km/h (6 Bft)
02.03.2015 10:18 6,6 C 5,0 C 76 % 1004,5 hPa 0,0 l/m 2 min 0 min 410 W/m 39,7 km/h (6 Bft)
02.03.2015 10:20 6,6 C 5,0 C 76 % 1004,5 hPa 0,0 l/m 2 min 0 min 411 W/m 35,6 km/h (5 Bft)
02.03.2015 10:22 6,7 C 5,6 C 76 % 1004,5 hPa 0,0 l/m 2 min 0 min 419 W/m 27,2 km/h (4 Bft)
02.03.2015 10:24 6,7 C 5,6 C 76 % 1004,5 hPa 0,0 l/m 2 min 0 min 421 W/m 33,5 km/h (5 Bft)
02.03.2015 10:26 6,7 C 5,6 C 76 % 1004,6 hPa 0,0 l/m 2 min 0 min 428 W/m 29,3 km/h (5 Bft)
02.03.2015 10:28 6,8 C 5,6 C 76 % 1004,5 hPa 0,0 l/m 2 min 0 min 431 W/m 33,5 km/h (5 Bft)
02.03.2015 10:30 6,8 C 5,6 C 75 % 1004,5 hPa 0,0 l/m 2 min 0 min 432 W/m 37,7 km/h (5 Bft)
02.03.2015 10:32 6,9 C 5,6 C 75 % 1004,6 hPa 0,0 l/m 2 min 0 min 437 W/m 37,7 km/h (5 Bft)
02.03.2015 10:34 6,9 C 5,6 C 74 % 1004,5 hPa 0,0 l/m 2 min 0 min 440 W/m 23,0 km/h (4 Bft)
02.03.2015 10:36 7,0 C 6,1 C 75 % 1004,6 hPa 0,0 l/m 2 min 0 min 444 W/m 27,2 km/h (4 Bft)
02.03.2015 10:38 7,1 C 6,1 C 75 % 1004,7 hPa 0,0 l/m 2 min 0 min 446 W/m 37,7 km/h (5 Bft)
02.03.2015 10:40 7,1 C 6,1 C 74 % 1004,7 hPa 0,0 l/m 2 min 0 min 449 W/m 39,7 km/h (6 Bft)
02.03.2015 10:42 7,2 C 6,1 C 74 % 1004,6 hPa 0,0 l/m 2 min 0 min 454 W/m 31,4 km/h (5 Bft)
02.03.2015 10:44 7,2 C 6,1 C 74 % 1004,6 hPa 0,0 l/m 2 min 0 min 457 W/m 35,6 km/h (5 Bft)
02.03.2015 10:46 7,2 C 6,1 C 73 % 1004,6 hPa 0,0 l/m 2 min 0 min 463 W/m 37,7 km/h (5 Bft)
02.03.2015 10:48 7,3 C 6,1 C 73 % 1004,6 hPa 0,0 l/m 2 min 0 min 465 W/m 33,5 km/h (5 Bft)
02.03.2015 10:50 7,3 C 6,1 C 73 % 1004,7 hPa 0,0 l/m 2 min 0 min 463 W/m 37,7 km/h (5 Bft)
02.03.2015 10:52 7,4 C 6,1 C 73 % 1004,6 hPa 0,0 l/m 2 min 0 min 469 W/m 39,7 km/h (6 Bft)
02.03.2015 10:54 7,4 C 6,1 C 72 % 1004,6 hPa 0,0 l/m 2 min 0 min 471 W/m 33,5 km/h (5 Bft)
02.03.2015 10:56 7,5 C 6,1 C 72 % 1004,6 hPa 0,0 l/m 2 min 0 min 476 W/m 33,5 km/h (5 Bft)
02.03.2015 10:58 7,5 C 6,1 C 72 % 1004,6 hPa 0,0 l/m 2 min 0 min 480 W/m 35,6 km/h (5 Bft)
02.03.2015 11:00 7,6 C 6,1 C 71 % 1004,8 hPa 0,0 l/m 2 min 0 min 483 W/m 37,7 km/h (5 Bft)
02.03.2015 11:02 7,6 C 6,1 C 71 % 1004,7 hPa 0,0 l/m 2 min 0 min 499 W/m 43,9 km/h (6 Bft)
02.03.2015 11:04 7,6 C 6,7 C 71 % 1004,6 hPa 0,0 l/m 2 min 0 min 507 W/m 25,1 km/h (4 Bft)
02.03.2015 11:06 7,7 C 6,7 C 71 % 1004,8 hPa 0,0 l/m 2 min 0 min 518 W/m 33,5 km/h (5 Bft)
02.03.2015 11:08 7,7 C 6,7 C 70 % 1004,7 hPa 0,0 l/m 2 min 0 min 510 W/m 37,7 km/h (5 Bft)
02.03.2015 11:10 7,7 C 6,7 C 70 % 1004,8 hPa 0,0 l/m 2 min 0 min 426 W/m 29,3 km/h (5 Bft)
02.03.2015 11:12 7,7 C 6,7 C 70 % 1004,9 hPa 0,0 l/m 2 min 0 min 272 W/m 23,0 km/h (4 Bft)
02.03.2015 11:14 7,8 C 6,7 C 70 % 1004,9 hPa 0,0 l/m 2 min 0 min 563 W/m 29,3 km/h (5 Bft)
02.03.2015 11:16 7,9 C 7,2 C 69 % 1004,9 hPa 0,0 l/m 2 min 0 min 581 W/m 31,4 km/h (5 Bft)
02.03.2015 11:18 7,9 C 7,2 C 69 % 1004,9 hPa 0,0 l/m 2 min 0 min 576 W/m 39,7 km/h (6 Bft)
02.03.2015 11:20 8,1 C 7,2 C 69 % 1004,9 hPa 0,0 l/m 2 min 0 min 574 W/m 39,7 km/h (6 Bft)
02.03.2015 11:22 8,1 C 7,2 C 68 % 1004,9 hPa 0,0 l/m 2 min 0 min 560 W/m 39,7 km/h (6 Bft)
02.03.2015 11:24 8,2 C 7,2 C 68 % 1005,0 hPa 0,0 l/m 2 min 0 min 544 W/m 35,6 km/h (5 Bft)
02.03.2015 11:26 8,3 C 7,2 C 68 % 1005,1 hPa 0,0 l/m 2 min 0 min 535 W/m 31,4 km/h (5 Bft)
02.03.2015 11:28 8,3 C 7,2 C 67 % 1005,0 hPa 0,0 l/m 2 min 0 min 540 W/m 31,4 km/h (5 Bft)
02.03.2015 11:30 8,4 C 7,2 C 67 % 1005,1 hPa 0,0 l/m 2 min 0 min 534 W/m 31,4 km/h (5 Bft)
02.03.2015 11:32 8,4 C 7,2 C 66 % 1005,0 hPa 0,0 l/m 2 min 0 min 538 W/m 37,7 km/h (5 Bft)
02.03.2015 11:34 8,4 C 7,2 C 66 % 1005,2 hPa 0,0 l/m 2 min 0 min 524 W/m 43,9 km/h (6 Bft)
02.03.2015 11:36 8,4 C 7,2 C 66 % 1005,1 hPa 0,0 l/m 2 min 0 min 550 W/m 35,6 km/h (5 Bft)
02.03.2015 11:38 8,3 C 6,7 C 66 % 1005,1 hPa 0,0 l/m 2 min 0 min 501 W/m 43,9 km/h (6 Bft)
02.03.2015 11:40 8,2 C 6,1 C 66 % 1005,1 hPa 0,0 l/m 0 min 0 min 68 W/m 37,7 km/h (5 Bft)
02.03.2015 11:42 8,1 C 6,1 C 65 % 1005,1 hPa 0,0 l/m 0 min 0 min 63 W/m 39,7 km/h (6 Bft)
02.03.2015 11:44 7,9 C 6,1 C 65 % 1005,1 hPa 0,0 l/m 0 min 0 min 64 W/m 43,9 km/h (6 Bft)
02.03.2015 11:46 7,8 C 6,1 C 66 % 1005,1 hPa 0,0 l/m 0 min 0 min 65 W/m 33,5 km/h (5 Bft)
02.03.2015 11:48 7,7 C 5,6 C 66 % 1005,1 hPa 0,0 l/m 0 min 0 min 70 W/m 35,6 km/h (5 Bft)
02.03.2015 11:50 7,6 C 5,6 C 67 % 1005,1 hPa 0,0 l/m 0 min 0 min 81 W/m 33,5 km/h (5 Bft)
02.03.2015 11:52 7,6 C 5,6 C 67 % 1005,1 hPa 0,0 l/m 0 min 0 min 72 W/m 29,3 km/h (5 Bft)
02.03.2015 11:54 7,5 C 5,6 C 67 % 1005,1 hPa 0,0 l/m 0 min 0 min 75 W/m 27,2 km/h (4 Bft)
02.03.2015 11:56 7,4 C 5,6 C 68 % 1005,1 hPa 0,0 l/m 0 min 0 min 104 W/m 27,2 km/h (4 Bft)
02.03.2015 11:58 7,4 C 5,6 C 68 % 1005,1 hPa 0,0 l/m 0 min 0 min 124 W/m 33,5 km/h (5 Bft)
02.03.2015 12:00 7,4 C 6,1 C 68 % 1005,1 hPa 0,0 l/m 0 min 0 min 165 W/m 35,6 km/h (5 Bft)
02.03.2015 12:02 7,4 C 6,7 C 69 % 1005,1 hPa 0,0 l/m 2 min 0 min 382 W/m 29,3 km/h (5 Bft)
02.03.2015 12:06 7,7 C 7,2 C 70 % 1005,1 hPa 0,0 l/m 2 min 0 min 564 W/m 35,6 km/h (5 Bft)
02.03.2015 12:08 7,8 C 7,2 C 70 % 1005,1 hPa 0,0 l/m 2 min 0 min 562 W/m 31,4 km/h (5 Bft)
02.03.2015 12:10 8,0 C 7,2 C 69 % 1005,2 hPa 0,0 l/m 2 min 0 min 557 W/m 37,7 km/h (5 Bft)
02.03.2015 12:12 8,1 C 6,7 C 68 % 1005,1 hPa 0,0 l/m 2 min 0 min 550 W/m 39,7 km/h (6 Bft)
02.03.2015 12:14 8,1 C 6,7 C 67 % 1005,2 hPa 0,0 l/m 2 min 0 min 550 W/m 33,5 km/h (5 Bft)
02.03.2015 12:16 8,2 C 6,7 C 66 % 1005,1 hPa 0,0 l/m 2 min 0 min 550 W/m 33,5 km/h (5 Bft)
02.03.2015 12:18 8,2 C 6,7 C 65 % 1005,1 hPa 0,0 l/m 2 min 0 min 404 W/m 29,3 km/h (5 Bft)
02.03.2015 12:20 8,2 C 7,2 C 65 % 1005,2 hPa 0,0 l/m 2 min 0 min 376 W/m 23,0 km/h (4 Bft)
02.03.2015 12:22 8,2 C 6,7 C 65 % 1005,2 hPa 0,0 l/m 2 min 0 min 361 W/m 29,3 km/h (5 Bft)
02.03.2015 12:24 8,2 C 6,7 C 64 % 1005,2 hPa 0,0 l/m 0 min 0 min 120 W/m 33,5 km/h (5 Bft)
02.03.2015 12:26 8,2 C 6,7 C 64 % 1005,2 hPa 0,0 l/m 0 min 0 min 139 W/m 29,3 km/h (5 Bft)
02.03.2015 12:28 8,2 C 6,7 C 63 % 1005,2 hPa 0,0 l/m 0 min 0 min 176 W/m 39,7 km/h (6 Bft)
02.03.2015 12:30 8,1 C 6,7 C 63 % 1005,4 hPa 0,0 l/m 0 min 0 min 229 W/m 25,1 km/h (4 Bft)
02.03.2015 12:32 8,2 C 7,2 C 64 % 1005,2 hPa 0,0 l/m 2 min 0 min 591 W/m 27,2 km/h (4 Bft)
02.03.2015 12:34 8,2 C 7,8 C 66 % 1005,2 hPa 0,0 l/m 2 min 0 min 646 W/m 31,4 km/h (5 Bft)
02.03.2015 12:36 8,4 C 8,3 C 65 % 1005,2 hPa 0,0 l/m 2 min 0 min 673 W/m 41,8 km/h (6 Bft)
02.03.2015 12:38 8,6 C 8,3 C 65 % 1005,2 hPa 0,0 l/m 2 min 0 min 684 W/m 41,8 km/h (6 Bft)
02.03.2015 12:40 8,7 C 7,8 C 63 % 1005,2 hPa 0,0 l/m 2 min 0 min 275 W/m 27,2 km/h (4 Bft)
02.03.2015 12:42 8,7 C 7,8 C 64 % 1005,2 hPa 0,0 l/m 0 min 0 min 220 W/m 27,2 km/h (4 Bft)
02.03.2015 12:44 8,8 C 8,3 C 65 % 1005,3 hPa 0,0 l/m 2 min 0 min 656 W/m 29,3 km/h (5 Bft)
02.03.2015 12:46 8,8 C 7,8 C 64 % 1005,3 hPa 0,0 l/m 2 min 0 min 265 W/m 27,2 km/h (4 Bft)
02.03.2015 12:48 8,8 C 7,8 C 63 % 1005,3 hPa 0,0 l/m 0 min 0 min 171 W/m 37,7 km/h (5 Bft)
02.03.2015 12:50 8,8 C 7,8 C 63 % 1005,3 hPa 0,0 l/m 0 min 0 min 189 W/m 35,6 km/h (5 Bft)
02.03.2015 12:52 8,7 C 7,8 C 62 % 1005,3 hPa 0,0 l/m 0 min 0 min 204 W/m 39,7 km/h (6 Bft)
02.03.2015 12:54 8,6 C 7,8 C 63 % 1005,3 hPa 0,0 l/m 0 min 0 min 255 W/m 41,8 km/h (6 Bft)
02.03.2015 12:56 8,7 C 8,3 C 64 % 1005,2 hPa 0,0 l/m 2 min 0 min 499 W/m 33,5 km/h (5 Bft)
02.03.2015 12:58 8,8 C 8,3 C 64 % 1005,3 hPa 0,0 l/m 2 min 0 min 658 W/m 33,5 km/h (5 Bft)
02.03.2015 13:00 9,0 C 8,3 C 63 % 1005,2 hPa 0,0 l/m 2 min 0 min 656 W/m 35,6 km/h (5 Bft)
02.03.2015 13:02 9,2 C 8,3 C 63 % 1005,1 hPa 0,0 l/m 2 min 0 min 655 W/m 33,5 km/h (5 Bft)
02.03.2015 13:04 9,3 C 8,3 C 62 % 1005,4 hPa 0,0 l/m 2 min 0 min 660 W/m 41,8 km/h (6 Bft)
02.03.2015 13:06 9,3 C 8,3 C 62 % 1005,2 hPa 0,0 l/m 2 min 0 min 609 W/m 37,7 km/h (5 Bft)
02.03.2015 13:08 9,3 C 8,3 C 61 % 1005,2 hPa 0,0 l/m 2 min 0 min 599 W/m 37,7 km/h (5 Bft)
02.03.2015 13:10 9,3 C 8,9 C 62 % 1005,0 hPa 0,0 l/m 2 min 0 min 620 W/m 33,5 km/h (5 Bft)
02.03.2015 13:12 9,4 C 8,9 C 63 % 1005,2 hPa 0,0 l/m 2 min 0 min 641 W/m 37,7 km/h (5 Bft)
02.03.2015 13:14 9,5 C 8,9 C 61 % 1005,4 hPa 0,0 l/m 2 min 0 min 654 W/m 37,7 km/h (5 Bft)
02.03.2015 13:16 9,4 C 8,9 C 61 % 1005,1 hPa 0,0 l/m 2 min 0 min 655 W/m 37,7 km/h (5 Bft)
02.03.2015 13:18 9,5 C 8,9 C 62 % 1005,1 hPa 0,0 l/m 2 min 0 min 634 W/m 23,0 km/h (4 Bft)
02.03.2015 13:20 9,4 C 8,3 C 61 % 1005,2 hPa 0,0 l/m 2 min 0 min 621 W/m 33,5 km/h (5 Bft)
02.03.2015 13:22 9,3 C 8,3 C 61 % 1005,2 hPa 0,0 l/m 2 min 0 min 604 W/m 33,5 km/h (5 Bft)
02.03.2015 13:24 9,3 C 8,3 C 61 % 1005,3 hPa 0,0 l/m 2 min 0 min 518 W/m 46,0 km/h (6 Bft)
02.03.2015 13:26 9,1 C 8,3 C 61 % 1005,2 hPa 0,0 l/m 2 min 0 min 265 W/m 37,7 km/h (5 Bft)
02.03.2015 13:28 9,1 C 8,9 C 62 % 1005,3 hPa 0,0 l/m 2 min 0 min 299 W/m 33,5 km/h (5 Bft)
02.03.2015 13:30 9,0 C 8,3 C 62 % 1005,2 hPa 0,0 l/m 0 min 0 min 238 W/m 31,4 km/h (5 Bft)
02.03.2015 13:32 8,9 C 8,9 C 63 % 1005,1 hPa 0,0 l/m 0 min 0 min 244 W/m 25,1 km/h (4 Bft)
02.03.2015 13:34 8,9 C 8,9 C 63 % 1005,0 hPa 0,0 l/m 0 min 0 min 243 W/m 20,9 km/h (4 Bft)
02.03.2015 13:36 8,9 C 8,9 C 64 % 1005,0 hPa 0,0 l/m 0 min 0 min 223 W/m 25,1 km/h (4 Bft)
02.03.2015 13:38 9,0 C 8,9 C 63 % 1005,0 hPa 0,0 l/m 0 min 0 min 218 W/m 27,2 km/h (4 Bft)
02.03.2015 13:40 9,2 C 8,9 C 63 % 1004,9 hPa 0,0 l/m 2 min 0 min 421 W/m 23,0 km/h (4 Bft)
02.03.2015 13:42 9,2 C 8,3 C 62 % 1005,0 hPa 0,0 l/m 2 min 0 min 371 W/m 35,6 km/h (5 Bft)
02.03.2015 13:44 9,2 C 8,3 C 62 % 1005,0 hPa 0,0 l/m 2 min 0 min 323 W/m 31,4 km/h (5 Bft)
02.03.2015 13:46 9,1 C 8,3 C 61 % 1005,1 hPa 0,0 l/m 0 min 0 min 241 W/m 33,5 km/h (5 Bft)
02.03.2015 13:48 8,9 C 7,8 C 61 % 1005,0 hPa 0,0 l/m 0 min 0 min 153 W/m 29,3 km/h (5 Bft)
02.03.2015 13:50 8,7 C 7,8 C 63 % 1005,0 hPa 0,0 l/m 0 min 0 min 169 W/m 29,3 km/h (5 Bft)
02.03.2015 13:52 8,6 C 8,3 C 63 % 1005,0 hPa 0,0 l/m 0 min 0 min 225 W/m 35,6 km/h (5 Bft)
02.03.2015 13:54 8,7 C 8,3 C 63 % 1005,0 hPa 0,0 l/m 0 min 0 min 229 W/m 27,2 km/h (4 Bft)
02.03.2015 13:56 8,7 C 8,3 C 61 % 1004,9 hPa 0,0 l/m 2 min 0 min 265 W/m 37,7 km/h (5 Bft)
02.03.2015 13:58 8,8 C 8,9 C 61 % 1004,9 hPa 0,0 l/m 2 min 0 min 345 W/m 41,8 km/h (6 Bft)
02.03.2015 14:00 8,9 C 8,3 C 61 % 1004,9 hPa 0,0 l/m 2 min 0 min 319 W/m 39,7 km/h (6 Bft)
02.03.2015 14:02 9,0 C 8,9 C 61 % 1004,9 hPa 0,0 l/m 2 min 0 min 434 W/m 29,3 km/h (5 Bft)
02.03.2015 14:04 9,1 C 8,3 C 60 % 1004,9 hPa 0,0 l/m 2 min 0 min 412 W/m 37,7 km/h (5 Bft)
02.03.2015 14:06 9,0 C 8,3 C 60 % 1004,9 hPa 0,0 l/m 0 min 0 min 209 W/m 37,7 km/h (5 Bft)
02.03.2015 14:08 8,8 C 7,8 C 60 % 1004,9 hPa 0,0 l/m 0 min 0 min 184 W/m 35,6 km/h (5 Bft)
02.03.2015 14:10 8,7 C 7,8 C 61 % 1004,9 hPa 0,0 l/m 0 min 0 min 188 W/m 31,4 km/h (5 Bft)
02.03.2015 14:12 8,6 C 8,3 C 62 % 1004,9 hPa 0,0 l/m 0 min 0 min 209 W/m 29,3 km/h (5 Bft)
02.03.2015 14:14 8,6 C 8,3 C 62 % 1004,9 hPa 0,0 l/m 0 min 0 min 188 W/m 29,3 km/h (5 Bft)
02.03.2015 14:16 8,6 C 7,8 C 63 % 1004,9 hPa 0,0 l/m 0 min 0 min 156 W/m 31,4 km/h (5 Bft)
02.03.2015 14:18 8,6 C 7,8 C 62 % 1004,9 hPa 0,0 l/m 0 min 0 min 138 W/m 33,5 km/h (5 Bft)
02.03.2015 14:20 8,5 C 7,8 C 62 % 1004,9 hPa 0,0 l/m 0 min 0 min 127 W/m 33,5 km/h (5 Bft)
02.03.2015 14:22 8,4 C 7,8 C 62 % 1004,9 hPa 0,0 l/m 0 min 0 min 126 W/m 39,7 km/h (6 Bft)
02.03.2015 14:24 8,4 C 7,8 C 61 % 1004,9 hPa 0,0 l/m 0 min 0 min 140 W/m 41,8 km/h (6 Bft)
02.03.2015 14:26 8,4 C 7,8 C 62 % 1004,9 hPa 0,0 l/m 0 min 0 min 156 W/m 31,4 km/h (5 Bft)
02.03.2015 14:28 8,3 C 7,2 C 62 % 1004,9 hPa 0,0 l/m 0 min 0 min 162 W/m 39,7 km/h (6 Bft)
02.03.2015 14:30 8,3 C 7,2 C 62 % 1004,9 hPa 0,0 l/m 0 min 0 min 147 W/m 29,3 km/h (5 Bft)
02.03.2015 14:32 8,3 C 7,2 C 63 % 1004,9 hPa 0,0 l/m 0 min 0 min 126 W/m 37,7 km/h (5 Bft)
02.03.2015 14:34 8,3 C 7,2 C 64 % 1004,9 hPa 0,0 l/m 0 min 0 min 105 W/m 27,2 km/h (4 Bft)
02.03.2015 14:36 8,3 C 7,2 C 64 % 1005,0 hPa 0,0 l/m 0 min 0 min 95 W/m 27,2 km/h (4 Bft)
02.03.2015 14:38 8,3 C 7,2 C 63 % 1004,9 hPa 0,0 l/m 0 min 0 min 91 W/m 27,2 km/h (4 Bft)
02.03.2015 14:40 8,3 C 7,2 C 64 % 1004,8 hPa 0,0 l/m 0 min 0 min 89 W/m 27,2 km/h (4 Bft)
02.03.2015 14:42 8,2 C 7,2 C 63 % 1004,8 hPa 0,0 l/m 0 min 0 min 87 W/m 33,5 km/h (5 Bft)
02.03.2015 14:44 8,2 C 7,2 C 63 % 1004,9 hPa 0,0 l/m 0 min 0 min 87 W/m 27,2 km/h (4 Bft)
02.03.2015 14:46 8,2 C 7,2 C 62 % 1004,9 hPa 0,0 l/m 0 min 0 min 79 W/m 29,3 km/h (5 Bft)
02.03.2015 14:48 8,2 C 7,2 C 62 % 1004,9 hPa 0,0 l/m 0 min 0 min 72 W/m 27,2 km/h (4 Bft)
02.03.2015 14:50 8,2 C 7,2 C 63 % 1005,1 hPa 0,0 l/m 0 min 0 min 68 W/m 29,3 km/h (5 Bft)
02.03.2015 14:52 8,2 C 6,7 C 62 % 1005,2 hPa 0,0 l/m 0 min 0 min 62 W/m 39,7 km/h (6 Bft)
02.03.2015 14:54 8,1 C 6,7 C 61 % 1005,2 hPa 0,0 l/m 0 min 2 min 60 W/m 37,7 km/h (5 Bft)
02.03.2015 14:56 8,0 C 6,7 C 63 % 1005,1 hPa 0,0 l/m 0 min 2 min 52 W/m 20,9 km/h (4 Bft)
02.03.2015 14:58 7,9 C 6,1 C 63 % 1005,2 hPa 0,0 l/m 0 min 0 min 37 W/m 27,2 km/h (4 Bft)
02.03.2015 15:00 7,9 C 6,1 C 64 % 1005,4 hPa 0,0 l/m 0 min 0 min 28 W/m 41,8 km/h (6 Bft)
02.03.2015 15:02 7,8 C 5,6 C 65 % 1005,4 hPa 0,0 l/m 0 min 2 min 22 W/m 50,2 km/h (7 Bft)
02.03.2015 15:04 7,6 C 5,0 C 68 % 1005,6 hPa 0,0 l/m 0 min 2 min 17 W/m 37,7 km/h (5 Bft)
02.03.2015 15:06 7,3 C 4,4 C 71 % 1005,6 hPa 0,0 l/m 0 min 2 min 14 W/m 35,6 km/h (5 Bft)
02.03.2015 15:08 7,1 C 3,9 C 73 % 1005,8 hPa 0,0 l/m 0 min 2 min 12 W/m 37,7 km/h (5 Bft)
02.03.2015 15:10 6,8 C 3,9 C 75 % 1005,9 hPa 0,0 l/m 0 min 2 min 11 W/m 29,3 km/h (5 Bft)
02.03.2015 15:12 6,6 C 3,9 C 77 % 1005,9 hPa 0,2 l/m 0 min 2 min 12 W/m 31,4 km/h (5 Bft)
02.03.2015 15:14 6,4 C 3,3 C 78 % 1005,9 hPa 0,0 l/m 0 min 2 min 16 W/m 37,7 km/h (5 Bft)
02.03.2015 15:16 6,1 C 3,3 C 79 % 1006,0 hPa 0,2 l/m 0 min 2 min 17 W/m 43,9 km/h (6 Bft)
02.03.2015 15:18 5,8 C 2,8 C 81 % 1006,1 hPa 0,0 l/m 0 min 2 min 14 W/m 37,7 km/h (5 Bft)
02.03.2015 15:20 5,6 C 2,8 C 82 % 1006,1 hPa 0,2 l/m 0 min 2 min 15 W/m 25,1 km/h (4 Bft)
02.03.2015 15:22 5,4 C 2,8 C 82 % 1006,1 hPa 0,0 l/m 0 min 2 min 19 W/m 31,4 km/h (5 Bft)
02.03.2015 15:24 5,2 C 2,2 C 83 % 1006,2 hPa 0,2 l/m 0 min 2 min 19 W/m 29,3 km/h (5 Bft)
02.03.2015 15:26 5,0 C 2,2 C 84 % 1006,4 hPa 0,2 l/m 0 min 2 min 18 W/m 29,3 km/h (5 Bft)
02.03.2015 15:28 4,8 C 2,2 C 84 % 1006,4 hPa 0,2 l/m 0 min 2 min 18 W/m 41,8 km/h (6 Bft)
02.03.2015 15:30 4,7 C 2,2 C 85 % 1006,5 hPa 0,0 l/m 0 min 2 min 15 W/m 35,6 km/h (5 Bft)
02.03.2015 15:32 4,4 C 1,7 C 85 % 1006,5 hPa 0,2 l/m 0 min 2 min 12 W/m 27,2 km/h (4 Bft)
02.03.2015 15:34 4,3 C 1,7 C 86 % 1006,5 hPa 0,2 l/m 0 min 2 min 12 W/m 29,3 km/h (5 Bft)
02.03.2015 15:36 4,1 C 1,7 C 86 % 1006,6 hPa 0,2 l/m 0 min 2 min 12 W/m 29,3 km/h (5 Bft)
02.03.2015 15:38 3,9 C 1,7 C 87 % 1006,7 hPa 0,2 l/m 0 min 2 min 13 W/m 27,2 km/h (4 Bft)
02.03.2015 15:40 3,8 C 1,7 C 87 % 1006,7 hPa 0,0 l/m 0 min 2 min 12 W/m 31,4 km/h (5 Bft)
02.03.2015 15:42 3,7 C 1,1 C 87 % 1006,8 hPa 0,4 l/m 0 min 2 min 9 W/m 37,7 km/h (5 Bft)
02.03.2015 15:44 3,5 C 1,1 C 88 % 1006,9 hPa 0,2 l/m 0 min 2 min 11 W/m 29,3 km/h (5 Bft)
02.03.2015 15:46 3,4 C 1,1 C 88 % 1006,8 hPa 0,2 l/m 0 min 2 min 13 W/m 20,9 km/h (4 Bft)
02.03.2015 15:48 3,3 C 1,1 C 88 % 1006,6 hPa 0,2 l/m 0 min 2 min 16 W/m 27,2 km/h (4 Bft)
02.03.2015 15:50 3,2 C 1,7 C 89 % 1006,5 hPa 0,0 l/m 0 min 2 min 19 W/m 23,0 km/h (4 Bft)
02.03.2015 15:52 3,1 C 1,7 C 89 % 1006,6 hPa 0,0 l/m 0 min 0 min 21 W/m 23,0 km/h (4 Bft)
02.03.2015 15:54 3,1 C 1,7 C 89 % 1006,6 hPa 0,0 l/m 0 min 2 min 26 W/m 20,9 km/h (4 Bft)
02.03.2015 15:56 3,1 C 1,7 C 90 % 1006,7 hPa 0,2 l/m 0 min 2 min 35 W/m 16,7 km/h (3 Bft)
02.03.2015 15:58 3,0 C 1,7 C 90 % 1006,7 hPa 0,0 l/m 0 min 0 min 41 W/m 20,9 km/h (4 Bft)
02.03.2015 16:00 3,0 C 1,7 C 90 % 1006,8 hPa 0,0 l/m 0 min 0 min 43 W/m 23,0 km/h (4 Bft)
02.03.2015 16:02 2,9 C 1,7 C 90 % 1006,9 hPa 0,0 l/m 0 min 2 min 37 W/m 16,7 km/h (3 Bft)
02.03.2015 16:04 2,9 C 1,7 C 91 % 1006,9 hPa 0,0 l/m 0 min 2 min 30 W/m 20,9 km/h (4 Bft)
02.03.2015 16:06 2,9 C 1,7 C 91 % 1007,0 hPa 0,0 l/m 0 min 2 min 22 W/m 20,9 km/h (4 Bft)
02.03.2015 16:08 2,8 C 1,1 C 91 % 1007,1 hPa 0,2 l/m 0 min 2 min 22 W/m 29,3 km/h (5 Bft)
02.03.2015 16:10 2,8 C 1,1 C 91 % 1007,1 hPa 0,0 l/m 0 min 2 min 26 W/m 25,1 km/h (4 Bft)
02.03.2015 16:12 2,7 C 1,7 C 91 % 1007,1 hPa 0,0 l/m 0 min 2 min 32 W/m 23,0 km/h (4 Bft)
02.03.2015 16:14 2,7 C 1,7 C 91 % 1007,2 hPa 0,2 l/m 0 min 2 min 30 W/m 23,0 km/h (4 Bft)
02.03.2015 16:16 2,7 C 1,7 C 92 % 1007,2 hPa 0,0 l/m 0 min 2 min 27 W/m 23,0 km/h (4 Bft)
02.03.2015 16:18 2,7 C 1,7 C 91 % 1007,2 hPa 0,0 l/m 0 min 2 min 24 W/m 27,2 km/h (4 Bft)
02.03.2015 16:20 2,7 C 1,7 C 92 % 1007,2 hPa 0,0 l/m 0 min 0 min 24 W/m 18,8 km/h (3 Bft)
02.03.2015 16:22 2,7 C 1,7 C 92 % 1007,2 hPa 0,0 l/m 0 min 0 min 32 W/m 20,9 km/h (4 Bft)
02.03.2015 16:24 2,6 C 1,7 C 92 % 1007,1 hPa 0,0 l/m 0 min 0 min 43 W/m 20,9 km/h (4 Bft)
02.03.2015 16:26 2,7 C 1,7 C 92 % 1007,2 hPa 0,0 l/m 0 min 0 min 66 W/m 23,0 km/h (4 Bft)
02.03.2015 16:28 2,7 C 1,7 C 92 % 1007,2 hPa 0,0 l/m 0 min 0 min 103 W/m 20,9 km/h (4 Bft)
02.03.2015 16:30 2,7 C 2,2 C 92 % 1007,2 hPa 0,0 l/m 2 min 0 min 130 W/m 18,8 km/h (3 Bft)
02.03.2015 16:32 2,7 C 2,2 C 93 % 1007,3 hPa 0,0 l/m 2 min 0 min 149 W/m 29,3 km/h (5 Bft)
02.03.2015 16:34 2,7 C 2,2 C 93 % 1007,3 hPa 0,0 l/m 2 min 0 min 177 W/m 20,9 km/h (4 Bft)
02.03.2015 16:36 2,8 C 2,2 C 93 % 1007,5 hPa 0,0 l/m 2 min 0 min 177 W/m 25,1 km/h (4 Bft)
02.03.2015 16:38 2,9 C 2,8 C 93 % 1007,5 hPa 0,2 l/m 2 min 0 min 221 W/m 23,0 km/h (4 Bft)
02.03.2015 16:40 2,9 C 2,8 C 93 % 1007,5 hPa 0,0 l/m 2 min 0 min 250 W/m 29,3 km/h (5 Bft)
02.03.2015 16:42 3,0 C 2,2 C 93 % 1007,5 hPa 0,0 l/m 2 min 0 min 167 W/m 35,6 km/h (5 Bft)
02.03.2015 16:44 3,1 C 2,2 C 93 % 1007,5 hPa 0,0 l/m 2 min 0 min 154 W/m 25,1 km/h (4 Bft)
02.03.2015 16:46 3,1 C 2,2 C 93 % 1007,4 hPa 0,0 l/m 2 min 0 min 107 W/m 27,2 km/h (4 Bft)
02.03.2015 16:48 3,1 C 2,2 C 93 % 1007,5 hPa 0,0 l/m 0 min 0 min 99 W/m 33,5 km/h (5 Bft)
02.03.2015 16:50 3,1 C 2,2 C 94 % 1007,6 hPa 0,0 l/m 2 min 0 min 102 W/m 33,5 km/h (5 Bft)
02.03.2015 16:52 3,1 C 2,2 C 94 % 1007,6 hPa 0,0 l/m 2 min 0 min 146 W/m 29,3 km/h (5 Bft)
02.03.2015 16:54 3,1 C 2,2 C 94 % 1007,7 hPa 0,0 l/m 2 min 0 min 145 W/m 20,9 km/h (4 Bft)
02.03.2015 16:56 3,1 C 2,2 C 94 % 1007,7 hPa 0,0 l/m 2 min 0 min 155 W/m 25,1 km/h (4 Bft)
02.03.2015 16:58 3,1 C 2,8 C 94 % 1007,7 hPa 0,0 l/m 2 min 0 min 170 W/m 29,3 km/h (5 Bft)
02.03.2015 17:00 3,2 C 2,8 C 94 % 1007,7 hPa 0,0 l/m 2 min 0 min 159 W/m 23,0 km/h (4 Bft)
02.03.2015 17:02 3,2 C 2,8 C 94 % 1007,8 hPa 0,0 l/m 2 min 0 min 120 W/m 25,1 km/h (4 Bft)
02.03.2015 17:04 3,2 C 2,8 C 94 % 1007,9 hPa 0,0 l/m 2 min 0 min 148 W/m 16,7 km/h (3 Bft)
02.03.2015 17:06 3,3 C 2,8 C 94 % 1008,0 hPa 0,0 l/m 2 min 0 min 123 W/m 25,1 km/h (4 Bft)
02.03.2015 17:08 3,3 C 2,8 C 94 % 1007,9 hPa 0,0 l/m 2 min 0 min 100 W/m 39,7 km/h (6 Bft)
02.03.2015 17:10 3,3 C 2,2 C 94 % 1008,1 hPa 0,0 l/m 2 min 0 min 89 W/m 27,2 km/h (4 Bft)
02.03.2015 17:12 3,3 C 2,2 C 94 % 1007,9 hPa 0,0 l/m 0 min 0 min 69 W/m 31,4 km/h (5 Bft)
02.03.2015 17:14 3,3 C 2,2 C 94 % 1007,9 hPa 0,0 l/m 2 min 0 min 74 W/m 33,5 km/h (5 Bft)
02.03.2015 17:16 3,3 C 2,2 C 94 % 1008,0 hPa 0,0 l/m 2 min 0 min 73 W/m 25,1 km/h (4 Bft)
02.03.2015 17:18 3,3 C 2,2 C 94 % 1008,0 hPa 0,0 l/m 0 min 0 min 67 W/m 35,6 km/h (5 Bft)
02.03.2015 17:20 3,3 C 2,2 C 94 % 1008,0 hPa 0,0 l/m 0 min 0 min 62 W/m 29,3 km/h (5 Bft)
02.03.2015 17:22 3,4 C 2,2 C 94 % 1008,0 hPa 0,0 l/m 0 min 0 min 58 W/m 27,2 km/h (4 Bft)
02.03.2015 17:24 3,4 C 2,2 C 94 % 1008,1 hPa 0,0 l/m 0 min 0 min 51 W/m 27,2 km/h (4 Bft)
02.03.2015 17:26 3,4 C 2,2 C 94 % 1008,1 hPa 0,0 l/m 0 min 0 min 46 W/m 29,3 km/h (5 Bft)
02.03.2015 17:28 3,4 C 2,2 C 94 % 1008,0 hPa 0,0 l/m 0 min 0 min 42 W/m 27,2 km/h (4 Bft)
02.03.2015 17:30 3,4 C 2,2 C 94 % 1008,1 hPa 0,0 l/m 0 min 0 min 39 W/m 31,4 km/h (5 Bft)
02.03.2015 17:32 3,4 C 2,2 C 94 % 1008,1 hPa 0,0 l/m 0 min 0 min 37 W/m 41,8 km/h (6 Bft)
02.03.2015 17:34 3,5 C 2,2 C 93 % 1008,2 hPa 0,0 l/m 0 min 0 min 34 W/m 23,0 km/h (4 Bft)
02.03.2015 17:36 3,5 C 2,2 C 93 % 1008,2 hPa 0,0 l/m 0 min 0 min 28 W/m 27,2 km/h (4 Bft)
02.03.2015 17:38 3,5 C 2,2 C 93 % 1008,4 hPa 0,0 l/m 0 min 0 min 26 W/m 23,0 km/h (4 Bft)
02.03.2015 17:40 3,5 C 2,2 C 93 % 1008,4 hPa 0,0 l/m 0 min 0 min 25 W/m 20,9 km/h (4 Bft)
02.03.2015 17:42 3,5 C 2,2 C 93 % 1008,4 hPa 0,0 l/m 0 min 0 min 24 W/m 29,3 km/h (5 Bft)
02.03.2015 17:44 3,6 C 2,2 C 93 % 1008,5 hPa 0,0 l/m 0 min 0 min 22 W/m 31,4 km/h (5 Bft)
02.03.2015 17:46 3,6 C 2,2 C 93 % 1008,5 hPa 0,0 l/m 0 min 0 min 21 W/m 16,7 km/h (3 Bft)
02.03.2015 17:48 3,6 C 2,2 C 92 % 1008,5 hPa 0,0 l/m 0 min 0 min 21 W/m 23,0 km/h (4 Bft)
02.03.2015 17:50 3,6 C 2,2 C 92 % 1008,6 hPa 0,0 l/m 0 min 0 min 24 W/m 16,7 km/h (3 Bft)
02.03.2015 17:52 3,6 C 2,2 C 92 % 1008,6 hPa 0,0 l/m 2 min 0 min 27 W/m 20,9 km/h (4 Bft)
02.03.2015 17:54 3,6 C 2,2 C 92 % 1008,7 hPa 0,0 l/m 2 min 0 min 32 W/m 16,7 km/h (3 Bft)
02.03.2015 17:56 3,6 C 2,2 C 92 % 1008,7 hPa 0,0 l/m 2 min 0 min 28 W/m 23,0 km/h (4 Bft)
02.03.2015 17:58 3,6 C 2,2 C 92 % 1008,8 hPa 0,0 l/m 2 min 0 min 20 W/m 16,7 km/h (3 Bft)
02.03.2015 18:00 3,6 C 2,2 C 92 % 1008,8 hPa 0,0 l/m 2 min 0 min 16 W/m 18,8 km/h (3 Bft)
02.03.2015 18:02 3,6 C 2,2 C 92 % 1008,8 hPa 0,0 l/m 2 min 0 min 12 W/m 16,7 km/h (3 Bft)
02.03.2015 18:06 3,6 C 2,2 C 92 % 1008,9 hPa 0,0 l/m 0 min 0 min 11 W/m 20,9 km/h (4 Bft)
02.03.2015 18:08 3,6 C 1,7 C 92 % 1009,0 hPa 0,0 l/m 0 min 0 min 9 W/m 18,8 km/h (3 Bft)
02.03.2015 18:10 3,6 C 1,7 C 92 % 1009,1 hPa 0,0 l/m 0 min 0 min 8 W/m 14,6 km/h (3 Bft)
02.03.2015 18:12 3,6 C 1,7 C 92 % 1009,1 hPa 0,0 l/m 0 min 0 min 7 W/m 18,8 km/h (3 Bft)
02.03.2015 18:14 3,6 C 1,7 C 91 % 1009,1 hPa 0,0 l/m 0 min 0 min 7 W/m 20,9 km/h (4 Bft)
02.03.2015 18:16 3,6 C 2,2 C 92 % 1009,2 hPa 0,0 l/m 0 min 0 min 6 W/m 16,7 km/h (3 Bft)
02.03.2015 18:18 3,6 C 1,7 C 91 % 1009,2 hPa 0,0 l/m 0 min 0 min 5 W/m 18,8 km/h (3 Bft)
02.03.2015 18:20 3,6 C 1,7 C 91 % 1009,4 hPa 0,0 l/m 0 min 0 min 5 W/m 18,8 km/h (3 Bft)
02.03.2015 18:22 3,6 C 2,2 C 91 % 1009,4 hPa 0,0 l/m 0 min 0 min 2 W/m 14,6 km/h (3 Bft)
02.03.2015 18:24 3,6 C 2,2 C 91 % 1009,4 hPa 0,0 l/m 0 min 0 min 0 W/m 14,6 km/h (3 Bft)
02.03.2015 18:26 3,6 C 1,7 C 91 % 1009,4 hPa 0,0 l/m 0 min 0 min 0 W/m 14,6 km/h (3 Bft)
02.03.2015 18:28 3,6 C 1,7 C 91 % 1009,4 hPa 0,0 l/m 0 min 0 min 0 W/m 14,6 km/h (3 Bft)
02.03.2015 18:30 3,6 C 1,7 C 91 % 1009,5 hPa 0,0 l/m 0 min 0 min 0 W/m 14,6 km/h (3 Bft)
02.03.2015 18:32 3,6 C 1,7 C 91 % 1009,4 hPa 0,0 l/m 0 min 0 min 0 W/m 14,6 km/h (3 Bft)
02.03.2015 18:34 3,6 C 1,7 C 91 % 1009,5 hPa 0,0 l/m 0 min 0 min 0 W/m 20,9 km/h (4 Bft)
02.03.2015 18:36 3,5 C 1,7 C 91 % 1009,5 hPa 0,0 l/m 0 min 0 min 0 W/m 16,7 km/h (3 Bft)
02.03.2015 18:38 3,6 C 1,7 C 91 % 1009,6 hPa 0,0 l/m 0 min 0 min 0 W/m 14,6 km/h (3 Bft)
02.03.2015 18:40 3,5 C 1,7 C 91 % 1009,6 hPa 0,0 l/m 0 min 0 min 0 W/m 14,6 km/h (3 Bft)
02.03.2015 18:42 3,5 C 1,7 C 91 % 1009,5 hPa 0,0 l/m 0 min 0 min 0 W/m 14,6 km/h (3 Bft)
02.03.2015 18:44 3,5 C 1,7 C 91 % 1009,6 hPa 0,0 l/m 0 min 0 min 0 W/m 18,8 km/h (3 Bft)
02.03.2015 18:46 3,4 C 1,7 C 91 % 1009,7 hPa 0,0 l/m 0 min 0 min 0 W/m 18,8 km/h (3 Bft)
02.03.2015 18:48 3,4 C 1,7 C 91 % 1009,7 hPa 0,0 l/m 0 min 0 min 0 W/m 18,8 km/h (3 Bft)
02.03.2015 18:50 3,4 C 1,7 C 90 % 1009,8 hPa 0,0 l/m 0 min 0 min 0 W/m 14,6 km/h (3 Bft)
02.03.2015 18:52 3,4 C 1,7 C 90 % 1009,8 hPa 0,0 l/m 0 min 0 min 0 W/m 14,6 km/h (3 Bft)
02.03.2015 18:54 3,4 C 1,7 C 90 % 1010,0 hPa 0,0 l/m 0 min 0 min 0 W/m 16,7 km/h (3 Bft)
02.03.2015 18:56 3,4 C 1,7 C 90 % 1009,9 hPa 0,0 l/m 0 min 0 min 0 W/m 16,7 km/h (3 Bft)
02.03.2015 18:58 3,4 C 1,7 C 90 % 1009,9 hPa 0,0 l/m 0 min 0 min 0 W/m 20,9 km/h (4 Bft)
02.03.2015 19:00 3,4 C 1,7 C 90 % 1010,0 hPa 0,0 l/m 0 min 0 min 0 W/m 18,8 km/h (3 Bft)
02.03.2015 19:02 3,4 C 1,7 C 90 % 1010,0 hPa 0,0 l/m 0 min 0 min 0 W/m 25,1 km/h (4 Bft)
02.03.2015 19:04 3,4 C 1,7 C 89 % 1010,0 hPa 0,0 l/m 0 min 0 min 0 W/m 23,0 km/h (4 Bft)
02.03.2015 19:06 3,3 C 1,7 C 89 % 1010,0 hPa 0,0 l/m 0 min 0 min 0 W/m 18,8 km/h (3 Bft)
02.03.2015 19:08 3,3 C 1,7 C 89 % 1010,0 hPa 0,0 l/m 0 min 0 min 0 W/m 23,0 km/h (4 Bft)
02.03.2015 19:10 3,3 C 1,7 C 89 % 1010,1 hPa 0,0 l/m 0 min 0 min 0 W/m 31,4 km/h (5 Bft)
02.03.2015 19:12 3,3 C 1,7 C 88 % 1010,1 hPa 0,0 l/m 0 min 0 min 0 W/m 23,0 km/h (4 Bft)
02.03.2015 19:14 3,4 C 1,7 C 88 % 1010,2 hPa 0,0 l/m 0 min 0 min 0 W/m 29,3 km/h (5 Bft)
02.03.2015 19:16 3,4 C 1,7 C 87 % 1010,2 hPa 0,0 l/m 0 min 0 min 0 W/m 25,1 km/h (4 Bft)
02.03.2015 19:18 3,4 C 1,7 C 87 % 1010,3 hPa 0,0 l/m 0 min 0 min 0 W/m 27,2 km/h (4 Bft)
02.03.2015 19:20 3,4 C 1,7 C 86 % 1010,3 hPa 0,0 l/m 0 min 0 min 0 W/m 18,8 km/h (3 Bft)
02.03.2015 19:22 3,4 C 1,7 C 86 % 1010,3 hPa 0,0 l/m 0 min 0 min 0 W/m 27,2 km/h (4 Bft)
02.03.2015 19:24 3,4 C 1,7 C 85 % 1010,2 hPa 0,0 l/m 0 min 0 min 0 W/m 35,6 km/h (5 Bft)
02.03.2015 19:26 3,5 C 1,7 C 85 % 1010,3 hPa 0,0 l/m 0 min 0 min 0 W/m 25,1 km/h (4 Bft)
02.03.2015 19:28 3,5 C 1,7 C 84 % 1010,3 hPa 0,0 l/m 0 min 0 min 0 W/m 33,5 km/h (5 Bft)
02.03.2015 19:30 3,6 C 1,7 C 83 % 1010,3 hPa 0,0 l/m 0 min 0 min 0 W/m 33,5 km/h (5 Bft)
02.03.2015 19:32 3,6 C 1,7 C 83 % 1010,3 hPa 0,0 l/m 0 min 0 min 0 W/m 33,5 km/h (5 Bft)
02.03.2015 19:34 3,7 C 1,7 C 82 % 1010,3 hPa 0,0 l/m 0 min 0 min 0 W/m 29,3 km/h (5 Bft)
02.03.2015 19:36 3,7 C 1,7 C 81 % 1010,4 hPa 0,0 l/m 0 min 0 min 0 W/m 29,3 km/h (5 Bft)
02.03.2015 19:38 3,7 C 1,7 C 81 % 1010,5 hPa 0,0 l/m 0 min 0 min 0 W/m 23,0 km/h (4 Bft)
02.03.2015 19:40 3,8 C 1,7 C 81 % 1010,5 hPa 0,0 l/m 0 min 0 min 0 W/m 27,2 km/h (4 Bft)
02.03.2015 19:42 3,8 C 1,7 C 80 % 1010,6 hPa 0,0 l/m 0 min 0 min 0 W/m 23,0 km/h (4 Bft)
02.03.2015 19:44 3,8 C 1,7 C 80 % 1010,6 hPa 0,0 l/m 0 min 0 min 0 W/m 23,0 km/h (4 Bft)
02.03.2015 19:46 3,8 C 1,7 C 80 % 1010,6 hPa 0,0 l/m 0 min 0 min 0 W/m 14,6 km/h (3 Bft)
02.03.2015 19:48 3,8 C 1,7 C 80 % 1010,6 hPa 0,0 l/m 0 min 0 min 0 W/m 29,3 km/h (5 Bft)
02.03.2015 19:50 3,8 C 1,7 C 79 % 1010,7 hPa 0,0 l/m 0 min 0 min 0 W/m 25,1 km/h (4 Bft)
02.03.2015 19:52 3,8 C 1,7 C 79 % 1010,7 hPa 0,0 l/m 0 min 0 min 0 W/m 25,1 km/h (4 Bft)
02.03.2015 19:54 3,9 C 1,7 C 79 % 1010,8 hPa 0,0 l/m 0 min 0 min 0 W/m 33,5 km/h (5 Bft)
02.03.2015 19:56 3,9 C 1,7 C 79 % 1010,8 hPa 0,0 l/m 0 min 0 min 0 W/m 37,7 km/h (5 Bft)
02.03.2015 19:58 3,9 C 1,7 C 79 % 1010,9 hPa 0,0 l/m 0 min 0 min 0 W/m 27,2 km/h (4 Bft)
02.03.2015 20:00 3,9 C 1,7 C 78 % 1010,9 hPa 0,0 l/m 0 min 0 min 0 W/m 29,3 km/h (5 Bft)
02.03.2015 20:02 3,9 C 1,7 C 78 % 1010,9 hPa 0,0 l/m 0 min 0 min 0 W/m 20,9 km/h (4 Bft)
02.03.2015 20:04 3,9 C 1,7 C 78 % 1011,0 hPa 0,0 l/m 0 min 0 min 0 W/m 29,3 km/h (5 Bft)
02.03.2015 20:06 3,9 C 1,7 C 78 % 1011,0 hPa 0,0 l/m 0 min 0 min 0 W/m 29,3 km/h (5 Bft)
02.03.2015 20:08 3,9 C 1,7 C 78 % 1011,0 hPa 0,0 l/m 0 min 0 min 0 W/m 27,2 km/h (4 Bft)
02.03.2015 20:10 3,9 C 1,7 C 78 % 1011,1 hPa 0,0 l/m 0 min 0 min 0 W/m 25,1 km/h (4 Bft)
02.03.2015 20:12 3,9 C 1,7 C 78 % 1011,1 hPa 0,0 l/m 0 min 0 min 0 W/m 27,2 km/h (4 Bft)
02.03.2015 20:14 3,9 C 2,2 C 78 % 1011,3 hPa 0,0 l/m 0 min 0 min 0 W/m 27,2 km/h (4 Bft)
02.03.2015 20:16 4,0 C 2,2 C 77 % 1011,4 hPa 0,0 l/m 0 min 0 min 0 W/m 25,1 km/h (4 Bft)
02.03.2015 20:18 4,0 C 2,2 C 77 % 1011,4 hPa 0,0 l/m 0 min 0 min 0 W/m 25,1 km/h (4 Bft)
02.03.2015 20:20 4,1 C 2,2 C 77 % 1011,6 hPa 0,0 l/m 0 min 0 min 0 W/m 37,7 km/h (5 Bft)
02.03.2015 20:22 4,2 C 2,8 C 76 % 1011,7 hPa 0,0 l/m 0 min 0 min 0 W/m 37,7 km/h (5 Bft)
02.03.2015 20:24 4,2 C 2,8 C 76 % 1011,7 hPa 0,0 l/m 0 min 0 min 0 W/m 41,8 km/h (6 Bft)
02.03.2015 20:26 4,3 C 2,8 C 76 % 1011,7 hPa 0,0 l/m 0 min 0 min 0 W/m 29,3 km/h (5 Bft)
02.03.2015 20:28 4,4 C 2,8 C 76 % 1011,7 hPa 0,0 l/m 0 min 0 min 0 W/m 39,7 km/h (6 Bft)
02.03.2015 20:30 4,4 C 2,8 C 75 % 1011,8 hPa 0,0 l/m 0 min 0 min 0 W/m 27,2 km/h (4 Bft)
02.03.2015 20:32 4,4 C 2,8 C 75 % 1011,8 hPa 0,0 l/m 0 min 0 min 0 W/m 35,6 km/h (5 Bft)
02.03.2015 20:34 4,4 C 2,8 C 75 % 1011,8 hPa 0,0 l/m 0 min 0 min 0 W/m 39,7 km/h (6 Bft)
02.03.2015 20:36 4,4 C 2,8 C 75 % 1011,9 hPa 0,0 l/m 0 min 0 min 0 W/m 37,7 km/h (5 Bft)
02.03.2015 20:38 4,5 C 2,8 C 75 % 1012,1 hPa 0,0 l/m 0 min 0 min 0 W/m 31,4 km/h (5 Bft)
02.03.2015 20:40 4,5 C 2,8 C 75 % 1012,3 hPa 0,0 l/m 0 min 0 min 0 W/m 23,0 km/h (4 Bft)
02.03.2015 20:42 4,5 C 2,8 C 75 % 1012,2 hPa 0,0 l/m 0 min 2 min 0 W/m 41,8 km/h (6 Bft)
02.03.2015 20:44 4,6 C 2,8 C 75 % 1012,3 hPa 0,0 l/m 0 min 2 min 0 W/m 37,7 km/h (5 Bft)
02.03.2015 20:46 4,6 C 2,8 C 75 % 1012,3 hPa 0,0 l/m 0 min 2 min 0 W/m 41,8 km/h (6 Bft)
02.03.2015 20:48 4,6 C 2,2 C 75 % 1012,2 hPa 0,0 l/m 0 min 0 min 0 W/m 31,4 km/h (5 Bft)
02.03.2015 20:50 4,5 C 2,2 C 75 % 1012,1 hPa 0,0 l/m 0 min 2 min 0 W/m 37,7 km/h (5 Bft)
02.03.2015 20:52 4,5 C 2,2 C 75 % 1012,1 hPa 0,0 l/m 0 min 2 min 0 W/m 25,1 km/h (4 Bft)
02.03.2015 20:54 4,4 C 2,2 C 75 % 1012,2 hPa 0,0 l/m 0 min 0 min 0 W/m 27,2 km/h (4 Bft)
02.03.2015 20:56 4,4 C 2,2 C 75 % 1012,2 hPa 0,0 l/m 0 min 0 min 0 W/m 37,7 km/h (5 Bft)
02.03.2015 20:58 4,3 C 2,2 C 75 % 1012,3 hPa 0,0 l/m 0 min 0 min 0 W/m 29,3 km/h (5 Bft)
02.03.2015 21:00 4,3 C 2,2 C 75 % 1012,3 hPa 0,0 l/m 0 min 0 min 0 W/m 35,6 km/h (5 Bft)
02.03.2015 21:02 4,2 C 2,2 C 75 % 1012,4 hPa 0,0 l/m 0 min 0 min 0 W/m 23,0 km/h (4 Bft)
02.03.2015 21:04 4,2 C 2,2 C 75 % 1012,4 hPa 0,0 l/m 0 min 0 min 0 W/m 27,2 km/h (4 Bft)
02.03.2015 21:06 4,2 C 2,2 C 76 % 1012,4 hPa 0,0 l/m 0 min 0 min 0 W/m 33,5 km/h (5 Bft)
02.03.2015 21:08 4,2 C 2,2 C 76 % 1012,4 hPa 0,0 l/m 0 min 0 min 0 W/m 29,3 km/h (5 Bft)
02.03.2015 21:10 4,2 C 2,2 C 76 % 1012,4 hPa 0,0 l/m 0 min 0 min 0 W/m 14,6 km/h (3 Bft)
02.03.2015 21:12 4,1 C 2,2 C 76 % 1012,5 hPa 0,0 l/m 0 min 0 min 0 W/m 23,0 km/h (4 Bft)
02.03.2015 21:14 4,1 C 2,2 C 76 % 1012,5 hPa 0,0 l/m 0 min 0 min 0 W/m 23,0 km/h (4 Bft)
02.03.2015 21:16 4,1 C 2,2 C 76 % 1012,5 hPa 0,0 l/m 0 min 0 min 0 W/m 20,9 km/h (4 Bft)
02.03.2015 21:18 4,1 C 2,2 C 76 % 1012,5 hPa 0,0 l/m 0 min 0 min 0 W/m 25,1 km/h (4 Bft)
02.03.2015 21:20 4,0 C 2,2 C 76 % 1012,5 hPa 0,0 l/m 0 min 0 min 0 W/m 16,7 km/h (3 Bft)
02.03.2015 21:22 4,0 C 2,2 C 76 % 1012,5 hPa 0,0 l/m 0 min 0 min 0 W/m 16,7 km/h (3 Bft)
02.03.2015 21:24 4,0 C 1,7 C 76 % 1012,5 hPa 0,0 l/m 0 min 0 min 0 W/m 16,7 km/h (3 Bft)
02.03.2015 21:26 3,9 C 1,7 C 76 % 1012,6 hPa 0,0 l/m 0 min 0 min 0 W/m 20,9 km/h (4 Bft)
02.03.2015 21:28 3,9 C 1,7 C 76 % 1012,6 hPa 0,0 l/m 0 min 0 min 0 W/m 18,8 km/h (3 Bft)
02.03.2015 21:30 3,9 C 1,7 C 76 % 1012,6 hPa 0,0 l/m 0 min 0 min 0 W/m 14,6 km/h (3 Bft)
02.03.2015 21:32 3,9 C 1,7 C 76 % 1012,7 hPa 0,0 l/m 0 min 0 min 0 W/m 25,1 km/h (4 Bft)
02.03.2015 21:34 3,8 C 1,7 C 76 % 1012,7 hPa 0,0 l/m 0 min 0 min 0 W/m 31,4 km/h (5 Bft)
02.03.2015 21:36 3,8 C 1,7 C 76 % 1012,7 hPa 0,0 l/m 0 min 0 min 0 W/m 18,8 km/h (3 Bft)
02.03.2015 21:38 3,8 C 1,7 C 76 % 1012,8 hPa 0,0 l/m 0 min 0 min 0 W/m 23,0 km/h (4 Bft)
02.03.2015 21:40 3,8 C 1,7 C 76 % 1012,7 hPa 0,0 l/m 0 min 0 min 0 W/m 25,1 km/h (4 Bft)
02.03.2015 21:42 3,8 C 1,7 C 76 % 1012,8 hPa 0,0 l/m 0 min 0 min 0 W/m 25,1 km/h (4 Bft)
02.03.2015 21:44 3,8 C 1,7 C 76 % 1012,8 hPa 0,0 l/m 0 min 0 min 0 W/m 25,1 km/h (4 Bft)
02.03.2015 21:46 3,7 C 1,7 C 76 % 1012,9 hPa 0,0 l/m 0 min 0 min 0 W/m 27,2 km/h (4 Bft)
02.03.2015 21:48 3,7 C 1,7 C 76 % 1012,9 hPa 0,0 l/m 0 min 0 min 0 W/m 25,1 km/h (4 Bft)
02.03.2015 21:50 3,7 C 1,7 C 76 % 1012,9 hPa 0,0 l/m 0 min 0 min 0 W/m 27,2 km/h (4 Bft)
02.03.2015 21:52 3,7 C 1,7 C 76 % 1013,0 hPa 0,0 l/m 0 min 0 min 0 W/m 31,4 km/h (5 Bft)
02.03.2015 21:54 3,7 C 1,7 C 76 % 1013,0 hPa 0,0 l/m 0 min 0 min 0 W/m 29,3 km/h (5 Bft)
02.03.2015 21:56 3,7 C 1,7 C 76 % 1013,0 hPa 0,0 l/m 0 min 0 min 0 W/m 31,4 km/h (5 Bft)
02.03.2015 21:58 3,7 C 1,7 C 76 % 1013,1 hPa 0,0 l/m 0 min 0 min 0 W/m 27,2 km/h (4 Bft)
02.03.2015 22:00 3,7 C 1,7 C 76 % 1013,1 hPa 0,0 l/m 0 min 0 min 0 W/m 27,2 km/h (4 Bft)
02.03.2015 22:02 3,7 C 1,7 C 76 % 1013,1 hPa 0,0 l/m 0 min 0 min 0 W/m 23,0 km/h (4 Bft)
02.03.2015 22:04 3,7 C 1,7 C 76 % 1013,2 hPa 0,0 l/m 0 min 0 min 0 W/m 25,1 km/h (4 Bft)
02.03.2015 22:06 3,7 C 1,7 C 76 % 1013,3 hPa 0,0 l/m 0 min 0 min 0 W/m 23,0 km/h (4 Bft)
02.03.2015 22:08 3,7 C 1,7 C 76 % 1013,3 hPa 0,0 l/m 0 min 0 min 0 W/m 27,2 km/h (4 Bft)
02.03.2015 22:10 3,7 C 1,7 C 76 % 1013,5 hPa 0,0 l/m 0 min 0 min 0 W/m 35,6 km/h (5 Bft)
02.03.2015 22:12 3,7 C 1,7 C 76 % 1013,4 hPa 0,0 l/m 0 min 0 min 0 W/m 27,2 km/h (4 Bft)
02.03.2015 22:14 3,7 C 1,7 C 76 % 1013,5 hPa 0,0 l/m 0 min 0 min 0 W/m 29,3 km/h (5 Bft)
02.03.2015 22:16 3,7 C 1,7 C 76 % 1013,5 hPa 0,0 l/m 0 min 0 min 0 W/m 23,0 km/h (4 Bft)
02.03.2015 22:18 3,7 C 1,7 C 76 % 1013,5 hPa 0,0 l/m 0 min 0 min 0 W/m 20,9 km/h (4 Bft)
02.03.2015 22:20 3,7 C 1,7 C 76 % 1013,7 hPa 0,0 l/m 0 min 0 min 0 W/m 20,9 km/h (4 Bft)
02.03.2015 22:22 3,7 C 1,7 C 76 % 1013,7 hPa 0,0 l/m 0 min 0 min 0 W/m 27,2 km/h (4 Bft)
02.03.2015 22:24 3,7 C 1,7 C 76 % 1013,7 hPa 0,0 l/m 0 min 0 min 0 W/m 27,2 km/h (4 Bft)
02.03.2015 22:26 3,7 C 1,7 C 76 % 1013,7 hPa 0,0 l/m 0 min 0 min 0 W/m 31,4 km/h (5 Bft)
02.03.2015 22:28 3,7 C 1,7 C 76 % 1013,7 hPa 0,0 l/m 0 min 0 min 0 W/m 20,9 km/h (4 Bft)
02.03.2015 22:30 3,7 C 1,7 C 76 % 1013,8 hPa 0,0 l/m 0 min 0 min 0 W/m 27,2 km/h (4 Bft)
02.03.2015 22:32 3,7 C 1,7 C 76 % 1013,8 hPa 0,0 l/m 0 min 0 min 0 W/m 18,8 km/h (3 Bft)
02.03.2015 22:34 3,7 C 1,7 C 76 % 1013,9 hPa 0,0 l/m 0 min 0 min 0 W/m 25,1 km/h (4 Bft)
02.03.2015 22:36 3,7 C 1,7 C 76 % 1013,9 hPa 0,0 l/m 0 min 0 min 0 W/m 29,3 km/h (5 Bft)
02.03.2015 22:38 3,6 C 1,7 C 76 % 1013,9 hPa 0,0 l/m 0 min 0 min 0 W/m 29,3 km/h (5 Bft)
02.03.2015 22:40 3,6 C 1,7 C 76 % 1014,0 hPa 0,0 l/m 0 min 0 min 0 W/m 27,2 km/h (4 Bft)
02.03.2015 22:42 3,6 C 1,7 C 76 % 1014,0 hPa 0,0 l/m 0 min 0 min 0 W/m 25,1 km/h (4 Bft)
02.03.2015 22:44 3,6 C 1,7 C 76 % 1014,0 hPa 0,0 l/m 0 min 0 min 0 W/m 20,9 km/h (4 Bft)
02.03.2015 22:46 3,6 C 1,7 C 76 % 1014,2 hPa 0,0 l/m 0 min 0 min 0 W/m 27,2 km/h (4 Bft)
02.03.2015 22:48 3,6 C 1,7 C 77 % 1014,2 hPa 0,0 l/m 0 min 0 min 0 W/m 20,9 km/h (4 Bft)
02.03.2015 22:50 3,6 C 1,7 C 76 % 1014,2 hPa 0,0 l/m 0 min 0 min 0 W/m 20,9 km/h (4 Bft)
02.03.2015 22:52 3,5 C 1,7 C 77 % 1014,3 hPa 0,0 l/m 0 min 0 min 0 W/m 16,7 km/h (3 Bft)
02.03.2015 22:54 3,5 C 1,7 C 77 % 1014,3 hPa 0,0 l/m 0 min 0 min 0 W/m 20,9 km/h (4 Bft)
02.03.2015 22:56 3,5 C 1,7 C 77 % 1014,3 hPa 0,0 l/m 0 min 0 min 0 W/m 25,1 km/h (4 Bft)
02.03.2015 22:58 3,4 C 1,7 C 77 % 1014,3 hPa 0,0 l/m 0 min 0 min 0 W/m 20,9 km/h (4 Bft)
02.03.2015 23:00 3,4 C 1,7 C 77 % 1014,4 hPa 0,0 l/m 0 min 0 min 0 W/m 25,1 km/h (4 Bft)
02.03.2015 23:02 3,4 C 1,7 C 77 % 1014,4 hPa 0,0 l/m 0 min 0 min 0 W/m 25,1 km/h (4 Bft)
02.03.2015 23:04 3,4 C 1,7 C 77 % 1014,4 hPa 0,0 l/m 0 min 0 min 0 W/m 25,1 km/h (4 Bft)
02.03.2015 23:06 3,4 C 1,7 C 78 % 1014,4 hPa 0,0 l/m 0 min 0 min 0 W/m 25,1 km/h (4 Bft)
02.03.2015 23:08 3,3 C 1,7 C 78 % 1014,5 hPa 0,0 l/m 0 min 0 min 0 W/m 27,2 km/h (4 Bft)
02.03.2015 23:10 3,3 C 1,7 C 78 % 1014,5 hPa 0,0 l/m 0 min 0 min 0 W/m 23,0 km/h (4 Bft)
02.03.2015 23:12 3,3 C 1,7 C 78 % 1014,6 hPa 0,0 l/m 0 min 0 min 0 W/m 31,4 km/h (5 Bft)
02.03.2015 23:14 3,3 C 1,7 C 79 % 1014,6 hPa 0,0 l/m 0 min 0 min 0 W/m 23,0 km/h (4 Bft)
02.03.2015 23:16 3,3 C 1,7 C 78 % 1014,6 hPa 0,0 l/m 0 min 0 min 0 W/m 27,2 km/h (4 Bft)
02.03.2015 23:18 3,3 C 1,7 C 79 % 1014,7 hPa 0,0 l/m 0 min 0 min 0 W/m 29,3 km/h (5 Bft)
02.03.2015 23:20 3,3 C 1,7 C 79 % 1014,7 hPa 0,0 l/m 0 min 0 min 0 W/m 23,0 km/h (4 Bft)
02.03.2015 23:22 3,3 C 1,7 C 79 % 1014,7 hPa 0,0 l/m 0 min 0 min 0 W/m 31,4 km/h (5 Bft)
02.03.2015 23:24 3,3 C 1,7 C 79 % 1014,8 hPa 0,0 l/m 0 min 0 min 0 W/m 27,2 km/h (4 Bft)
02.03.2015 23:26 3,3 C 1,7 C 80 % 1014,8 hPa 0,0 l/m 0 min 0 min 0 W/m 25,1 km/h (4 Bft)
02.03.2015 23:28 3,3 C 1,7 C 80 % 1014,7 hPa 0,0 l/m 0 min 0 min 0 W/m 25,1 km/h (4 Bft)
02.03.2015 23:30 3,3 C 1,7 C 80 % 1014,8 hPa 0,0 l/m 0 min 0 min 0 W/m 35,6 km/h (5 Bft)
02.03.2015 23:32 3,3 C 1,7 C 80 % 1014,9 hPa 0,0 l/m 0 min 0 min 0 W/m 31,4 km/h (5 Bft)
02.03.2015 23:34 3,3 C 1,7 C 80 % 1014,9 hPa 0,0 l/m 0 min 0 min 0 W/m 27,2 km/h (4 Bft)
02.03.2015 23:36 3,3 C 1,7 C 80 % 1015,0 hPa 0,0 l/m 0 min 0 min 0 W/m 33,5 km/h (5 Bft)
02.03.2015 23:38 3,3 C 1,7 C 81 % 1015,0 hPa 0,0 l/m 0 min 0 min 0 W/m 33,5 km/h (5 Bft)
02.03.2015 23:40 3,3 C 1,7 C 81 % 1015,0 hPa 0,0 l/m 0 min 0 min 0 W/m 23,0 km/h (4 Bft)
02.03.2015 23:42 3,3 C 1,7 C 81 % 1015,0 hPa 0,0 l/m 0 min 0 min 0 W/m 29,3 km/h (5 Bft)
02.03.2015 23:44 3,3 C 1,7 C 81 % 1015,0 hPa 0,0 l/m 0 min 0 min 0 W/m 29,3 km/h (5 Bft)
02.03.2015 23:46 3,3 C 1,7 C 81 % 1015,1 hPa 0,0 l/m 0 min 0 min 0 W/m 25,1 km/h (4 Bft)
02.03.2015 23:48 3,3 C 1,7 C 81 % 1015,1 hPa 0,0 l/m 0 min 0 min 0 W/m 18,8 km/h (3 Bft)
02.03.2015 23:50 3,3 C 1,7 C 81 % 1015,1 hPa 0,0 l/m 0 min 0 min 0 W/m 23,0 km/h (4 Bft)
02.03.2015 23:52 3,3 C 1,7 C 81 % 1015,1 hPa 0,0 l/m 0 min 0 min 0 W/m 25,1 km/h (4 Bft)
02.03.2015 23:54 3,3 C 1,7 C 81 % 1015,2 hPa 0,0 l/m 0 min 0 min 0 W/m 27,2 km/h (4 Bft)
02.03.2015 23:56 3,3 C 1,7 C 82 % 1015,1 hPa 0,0 l/m 0 min 0 min 0 W/m 25,1 km/h (4 Bft)
02.03.2015 23:58 3,3 C 1,7 C 82 % 1015,1 hPa 0,0 l/m 0 min 0 min 0 W/m 23,0 km/h (4 Bft)
_ Min-Zeit 16:24 15:42 14:04 00:08 - - - - 06:54
Minimum _ 2,6 C 1,1 C 60 % 996,7 hPa - - - - 6,3 km/h (2 Bft)
_ Max-Zeit 13:14 13:10 16:50 23:54 15:42 07:30 00:16 12:38 01:02
Maximum _ 9,5 C 8,9 C 94 % 1015,2 hPa 0,4 l/m 2 min 2 min 684 W/m 62,8 km/h
W-SW (8 Bft)
Durchschnitt _ 5,5 C 3,9 C 79 % 1005,2 hPa #4,0 l/m #6:10 h #2:06 h 212 W/m 27,7 km/h (4 Bft)
© 2015 W. Hausmann